M I D A S
Marine Information and Data Acquisition System
Tripno 1638 of the Zeeleeuw from 2009-02-03 07:50:40 to 2009-02-03 15:48:55
Back to CruiseResearch ActivitiesStationsMapUnderway DataData graphs

EquipmentUnitsComment
TimeDGPSUTC
LatitudeDGPSDM.mWGS84
LongitudeDGPSDM.mWGS84
TemperatureSBE03/SBE38deg celciusITS90
ConductivitySBE21S/mITS90
SalinitySBE21 Practical Salinity Units
ChlorophylAChelsea fluorimeterg/lCalibrated in Aceton
Missing or incorrect values are displayed as -999
Sea surface data collected by the RV Zeeleeuw from 2009-02-03 07:49:35 to 2009-02-03 16:00:02
                                                                                    Next 1000 lines
Time Latitude Longitude Temperature Conductivity Salinity ChlorophylA
2009-02-03 07:49:46 51°13.661 2°55.956 -999 0.094384 0.544917 -0.7568
2009-02-03 07:49:51 51°13.662 2°55.954 -999 0.094384 0.544928 -0.7568
2009-02-03 07:49:55 51°13.662 2°55.952 -999 0.094384 0.544938 -0.7568
2009-02-03 07:50:01 51°13.663 2°55.948 -999 0.094384 0.544938 -0.7568
2009-02-03 07:50:06 51°13.665 2°55.945 -999 0.094384 0.544938 -0.7568
2009-02-03 07:50:11 51°13.666 2°55.942 -999 0.094384 0.544948 -0.7568
2009-02-03 07:50:16 51°13.667 2°55.938 -999 0.094384 0.544948 -0.7568
2009-02-03 07:50:21 51°13.668 2°55.934 -999 0.094384 0.544959 -0.7568
2009-02-03 07:50:26 51°13.67 2°55.929 -999 0.094384 0.544969 -0.7568
2009-02-03 07:50:31 51°13.672 2°55.924 -999 0.094384 0.544969 -0.7568
2009-02-03 07:50:36 51°13.673 2°55.919 -999 0.094384 0.544969 -0.7568
2009-02-03 07:50:41 51°13.675 2°55.913 -999 0.094384 0.544979 -0.7568
2009-02-03 07:50:46 51°13.676 2°55.907 -999 0.094384 0.544979 -0.7568
2009-02-03 07:50:51 51°13.678 2°55.901 -999 0.094384 0.544979 -0.7568
2009-02-03 07:50:56 51°13.68 2°55.895 -999 0.094384 0.544989 -0.7568
2009-02-03 07:51:01 51°13.682 2°55.888 -999 0.094384 0.544989 -0.7568
2009-02-03 07:51:06 51°13.683 2°55.881 -999 0.094384 0.545 -0.7568
2009-02-03 07:51:11 51°13.685 2°55.874 -999 0.094281 0.544392 -0.7568
2009-02-03 07:51:16 51°13.687 2°55.867 -999 0.094281 0.544392 -0.7568
2009-02-03 07:51:21 51°13.689 2°55.859 -999 0.094281 0.544392 -0.7568
2009-02-03 07:51:26 51°13.691 2°55.851 -999 0.094281 0.544402 -0.7568
2009-02-03 07:51:31 51°13.693 2°55.844 -999 0.094281 0.544402 -0.7568
2009-02-03 07:51:36 51°13.694 2°55.836 -999 0.094281 0.544412 -0.7568
2009-02-03 07:51:41 51°13.696 2°55.829 -999 0.094281 0.544412 -0.7568
2009-02-03 07:51:46 51°13.697 2°55.822 -999 0.094281 0.544412 -0.7568
2009-02-03 07:51:51 51°13.698 2°55.815 -999 0.094281 0.544423 -0.7568
2009-02-03 07:51:56 51°13.699 2°55.808 -999 0.094281 0.544423 -0.7568
2009-02-03 07:52:01 51°13.7 2°55.8 -999 0.094281 0.544423 -0.7568
2009-02-03 07:52:06 51°13.701 2°55.793 -999 0.094281 0.544423 -0.7568
2009-02-03 07:52:11 51°13.701 2°55.786 -999 0.094281 0.544433 -0.7568
2009-02-03 07:52:16 51°13.702 2°55.779 -999 0.094281 0.544433 -0.7568
2009-02-03 07:52:21 51°13.703 2°55.773 -999 0.094281 0.544433 -0.7568
2009-02-03 07:52:26 51°13.703 2°55.767 -999 0.094281 0.544443 -0.7568
2009-02-03 07:52:31 51°13.704 2°55.762 -999 0.094281 0.544443 -0.7568
2009-02-03 07:52:36 51°13.704 2°55.76 -999 0.094281 0.544443 -0.7568
2009-02-03 07:52:41 51°13.704 2°55.76 -999 0.094281 0.544454 -0.7568
2009-02-03 07:52:46 51°13.705 2°55.761 -999 0.094281 0.544454 -0.7568
2009-02-03 07:52:51 51°13.706 2°55.764 -999 0.094281 0.544464 -0.7568
2009-02-03 07:52:56 51°13.708 2°55.767 -999 0.094281 0.544485 -0.7568
2009-02-03 07:53:01 51°13.709 2°55.769 -999 0.094281 0.544505 -0.7568
2009-02-03 07:53:06 51°13.711 2°55.771 -999 0.094281 0.544495 -0.7568
2009-02-03 07:53:11 51°13.711 2°55.772 -999 0.094281 0.544505 -0.7568
2009-02-03 07:53:16 51°13.711 2°55.772 -999 0.094281 0.544505 -0.7568
2009-02-03 07:53:21 51°13.711 2°55.771 -999 0.094281 0.544485 -0.7568
2009-02-03 07:53:26 51°13.71 2°55.77 -999 0.094281 0.544485 -0.7568
2009-02-03 07:53:31 51°13.708 2°55.768 -999 0.094281 0.544495 -0.7568
2009-02-03 07:53:36 51°13.706 2°55.766 -999 0.094281 0.544505 -0.7568
2009-02-03 07:53:41 51°13.704 2°55.764 -999 0.094281 0.544526 -0.7568
2009-02-03 07:53:46 51°13.701 2°55.762 -999 0.094281 0.544526 -0.7568
2009-02-03 07:53:51 51°13.7 2°55.76 -999 0.094281 0.544526 -0.7568
2009-02-03 07:53:56 51°13.699 2°55.76 -999 0.094281 0.544515 -0.7568
2009-02-03 07:54:01 51°13.699 2°55.759 -999 0.094281 0.544505 -0.7568
2009-02-03 07:54:06 51°13.7 2°55.76 -999 0.094281 0.544495 -0.7568
2009-02-03 07:54:11 51°13.703 2°55.76 -999 0.094281 0.544495 -0.7568
2009-02-03 07:54:16 51°13.706 2°55.761 -999 0.094281 0.544495 -0.7568
2009-02-03 07:54:21 51°13.709 2°55.76 -999 0.094281 0.544495 -0.7568
2009-02-03 07:54:26 51°13.713 2°55.759 -999 0.094281 0.544526 -0.7568
2009-02-03 07:54:31 51°13.718 2°55.757 -999 0.094281 0.544567 -0.7568
2009-02-03 07:54:36 51°13.724 2°55.753 -999 0.094281 0.544598 -0.7568
2009-02-03 07:54:41 51°13.729 2°55.748 -999 0.094281 0.544598 -0.721976
2009-02-03 07:54:46 51°13.736 2°55.743 -999 0.094281 0.544598 -0.721976
2009-02-03 07:54:50 51°13.741 2°55.737 -999 0.094281 0.544588 -0.7568
2009-02-03 07:54:56 51°13.75 2°55.729 -999 0.094281 0.544567 -0.7568
2009-02-03 07:55:01 51°13.758 2°55.721 -999 0.094281 0.544546 -0.7568
2009-02-03 07:55:06 51°13.765 2°55.713 -999 0.094281 0.544526 -0.7568
2009-02-03 07:55:11 51°13.773 2°55.705 -999 0.094281 0.544536 -0.7568
2009-02-03 07:55:16 51°13.781 2°55.696 -999 0.094281 0.544536 -0.7568
2009-02-03 07:55:21 51°13.79 2°55.687 -999 0.094281 0.544557 -0.7568
2009-02-03 07:55:26 51°13.798 2°55.678 -999 0.094281 0.544577 -0.7568
2009-02-03 07:55:31 51°13.807 2°55.668 -999 0.094281 0.544588 -0.7568
2009-02-03 07:55:36 51°13.815 2°55.659 -999 0.094281 0.544598 -0.7568
2009-02-03 07:55:41 51°13.824 2°55.649 -999 0.094281 0.544608 -0.7568
2009-02-03 07:55:46 51°13.833 2°55.64 -999 0.094281 0.544608 -0.7568
2009-02-03 07:55:51 51°13.843 2°55.631 -999 0.094281 0.544608 -0.7568
2009-02-03 07:55:56 51°13.852 2°55.622 -999 0.094281 0.544608 -0.7568
2009-02-03 07:56:01 51°13.862 2°55.613 -999 0.094281 0.544608 -0.7568
2009-02-03 07:56:06 51°13.872 2°55.604 -999 0.094281 0.544608 -0.7568
2009-02-03 07:56:10 51°13.88 2°55.598 -999 0.094281 0.544618 -0.7568
2009-02-03 07:56:16 51°13.892 2°55.587 -999 0.094281 0.544618 -0.7568
2009-02-03 07:56:21 51°13.902 2°55.579 -999 0.094281 0.544618 -0.7568
2009-02-03 07:56:26 51°13.913 2°55.571 -999 0.094281 0.544639 -0.7568
2009-02-03 07:56:30 51°13.921 2°55.565 -999 0.094281 0.544649 -0.7568
2009-02-03 07:56:35 51°13.932 2°55.556 -999 0.094281 0.54466 -0.7568
2009-02-03 07:56:41 51°13.944 2°55.547 -999 0.094281 0.54466 -0.7568
2009-02-03 07:56:46 51°13.955 2°55.539 -999 0.094281 0.54466 -0.7568
2009-02-03 07:56:51 51°13.966 2°55.531 -999 0.094281 0.54467 -0.7568
2009-02-03 07:56:56 51°13.976 2°55.523 -999 0.094281 0.54467 -0.7568
2009-02-03 07:57:01 51°13.987 2°55.515 -999 0.094281 0.54466 -0.7568
2009-02-03 07:57:06 51°13.997 2°55.507 -999 0.094281 0.54468 -0.7568
2009-02-03 07:57:11 51°14.008 2°55.499 -999 0.094281 0.544691 -0.7568
2009-02-03 07:57:15 51°14.016 2°55.492 -999 0.094281 0.544691 -0.7568
2009-02-03 07:57:21 51°14.029 2°55.483 -999 0.094178 0.544299 -0.513031
2009-02-03 07:57:26 51°14.039 2°55.475 -999 0.176413 1.037951 -0.199615
2009-02-03 07:57:31 51°14.05 2°55.467 -999 0.189485 1.122304 -0.199615
2009-02-03 07:57:36 51°14.061 2°55.459 -999 0.808722 5.400713 0.566514
2009-02-03 07:57:41 51°14.071 2°55.452 -999 1.348004 10.232648 1.437116
2009-02-03 07:57:46 51°14.082 2°55.443 -999 1.348004 10.232648 1.437116
2009-02-03 07:57:51 51°14.092 2°55.435 -999 1.56198 12.598783 1.402292
2009-02-03 07:57:56 51°14.103 2°55.427 -999 2.349328 20.849219 2.342541
2009-02-03 07:58:01 51°14.114 2°55.418 -999 2.9205 27.473332 3.28279
2009-02-03 07:58:06 51°14.124 2°55.409 -999 2.984984 29.304468 3.700679
2009-02-03 07:58:11 51°14.135 2°55.4 -999 2.94308 29.536509 3.874799
2009-02-03 07:58:16 51°14.145 2°55.39 -999 2.94308 29.536509 3.874799
2009-02-03 07:58:21 51°14.156 2°55.38 -999 2.905523 29.693513 4.014096
2009-02-03 07:58:26 51°14.167 2°55.37 -999 2.880281 29.874582 4.118568
2009-02-03 07:58:31 51°14.177 2°55.36 -999 2.852969 29.84764 4.118568
2009-02-03 07:58:36 51°14.188 2°55.349 -999 2.831037 29.807808 4.083744
2009-02-03 07:58:41 51°14.198 2°55.338 -999 2.812727 29.753871 4.04892
2009-02-03 07:58:46 51°14.208 2°55.326 -999 2.812727 29.753871 4.04892
2009-02-03 07:58:51 51°14.218 2°55.314 -999 2.796176 29.674654 4.014096
2009-02-03 07:58:55 51°14.226 2°55.304 -999 2.783866 29.630471 3.944447
2009-02-03 07:59:01 51°14.238 2°55.288 -999 2.774557 29.589142 3.909623
2009-02-03 07:59:06 51°14.248 2°55.275 -999 2.765868 29.551407 3.839975
2009-02-03 07:59:11 51°14.257 2°55.26 -999 2.758213 29.515897 3.770327
2009-02-03 07:59:15 51°14.264 2°55.248 -999 2.758213 29.515897 3.770327
2009-02-03 07:59:21 51°14.276 2°55.231 -999 2.75418 29.520343 3.735503
2009-02-03 07:59:26 51°14.285 2°55.215 -999 2.748181 29.493493 3.665855
2009-02-03 07:59:31 51°14.294 2°55.2 -999 2.74425 29.478477 3.665855
2009-02-03 07:59:36 51°14.303 2°55.184 -999 2.739802 29.44293 3.561383
2009-02-03 07:59:41 51°14.312 2°55.168 -999 2.74094 29.479791 3.526559
2009-02-03 07:59:46 51°14.322 2°55.153 -999 2.74094 29.479791 3.526559
2009-02-03 07:59:51 51°14.331 2°55.136 -999 2.739079 29.491075 3.491735
2009-02-03 07:59:56 51°14.339 2°55.119 -999 2.737941 29.495628 3.456911
2009-02-03 08:00:01 51°14.348 2°55.103 -999 2.737838 29.518795 3.422087
2009-02-03 08:00:06 51°14.357 2°55.085 -999 2.738873 29.55371 3.456911
2009-02-03 08:00:10 51°14.364 2°55.071 -999 2.740217 29.587831 3.456911
2009-02-03 08:00:16 51°14.374 2°55.05 -999 2.740217 29.587831 3.456911
2009-02-03 08:00:21 51°14.383 2°55.032 -999 2.743217 29.6426 3.422087
2009-02-03 08:00:26 51°14.392 2°55.014 -999 2.748803 29.720943 3.456911
2009-02-03 08:00:31 51°14.401 2°54.997 -999 2.753665 29.787994 3.491735
2009-02-03 08:00:36 51°14.412 2°54.98 -999 2.763285 29.909997 3.526559
2009-02-03 08:00:41 51°14.423 2°54.964 -999 2.771872 30.020698 3.631031
2009-02-03 08:00:46 51°14.434 2°54.949 -999 2.771872 30.020698 3.631031
2009-02-03 08:00:50 51°14.443 2°54.937 -999 2.781078 30.133359 3.735503
2009-02-03 08:00:56 51°14.457 2°54.918 -999 2.792768 30.278547 3.805151
2009-02-03 08:01:01 51°14.469 2°54.903 -999 2.804976 30.420702 3.839975
2009-02-03 08:01:06 51°14.481 2°54.888 -999 2.8147 30.526653 3.874799
2009-02-03 08:01:11 51°14.494 2°54.874 -999 2.824839 30.642247 3.944447
2009-02-03 08:01:15 51°14.504 2°54.862 -999 2.824839 30.642247 3.944447
2009-02-03 08:01:21 51°14.519 2°54.845 -999 2.836116 30.774315 4.04892
2009-02-03 08:01:26 51°14.533 2°54.832 -999 2.847807 30.912342 4.153392
2009-02-03 08:01:31 51°14.546 2°54.819 -999 2.859912 31.047762 4.22304
2009-02-03 08:01:35 51°14.557 2°54.808 -999 2.8715 31.173164 4.327512
2009-02-03 08:01:40 51°14.572 2°54.796 -999 2.880192 31.268639 4.362336
2009-02-03 08:01:46 51°14.589 2°54.781 -999 2.880192 31.268639 4.362336
2009-02-03 08:01:50 51°14.601 2°54.771 -999 2.889297 31.370992 4.39716
2009-02-03 08:01:55 51°14.615 2°54.757 -999 2.900058 31.487397 4.466808
2009-02-03 08:02:00 51°14.629 2°54.744 -999 2.90668 31.553214 4.57128
2009-02-03 08:02:05 51°14.644 2°54.73 -999 2.915269 31.645468 4.57128
2009-02-03 08:02:10 51°14.658 2°54.717 -999 2.922823 31.726276 4.57128
2009-02-03 08:02:15 51°14.673 2°54.703 -999 2.922823 31.726276 4.57128
2009-02-03 08:02:20 51°14.688 2°54.689 -999 2.927272 31.774736 4.57128
2009-02-03 08:02:25 51°14.703 2°54.675 -999 2.933688 31.852614 4.501632
2009-02-03 08:02:30 51°14.717 2°54.662 -999 2.939172 31.918375 4.536456
2009-02-03 08:02:35 51°14.732 2°54.649 -999 2.940621 31.932813 4.536456
2009-02-03 08:02:39 51°14.744 2°54.638 -999 2.943208 31.96188 4.431984
2009-02-03 08:02:44 51°14.759 2°54.624 -999 2.943208 31.96188 4.431984
2009-02-03 08:02:49 51°14.774 2°54.611 -999 2.946106 31.997611 4.39716
2009-02-03 08:02:54 51°14.789 2°54.598 -999 2.948486 32.027143 4.362336
2009-02-03 08:02:59 51°14.804 2°54.584 -999 2.950452 32.050731 4.327512
2009-02-03 08:03:04 51°14.819 2°54.571 -999 2.949417 32.042243 4.257864
2009-02-03 08:03:09 51°14.834 2°54.558 -999 2.951797 32.073752 4.22304
2009-02-03 08:03:14 51°14.849 2°54.545 -999 2.951797 32.073752 4.22304
2009-02-03 08:03:19 51°14.864 2°54.532 -999 2.952522 32.092281 4.188216
2009-02-03 08:03:24 51°14.88 2°54.519 -999 2.953971 32.116567 4.188216
2009-02-03 08:03:29 51°14.895 2°54.506 -999 2.958938 32.180171 4.083744
2009-02-03 08:03:34 51°14.91 2°54.493 -999 2.96256 32.224675 4.04892
2009-02-03 08:03:39 51°14.925 2°54.48 -999 2.965872 32.26249 4.04892
2009-02-03 08:03:43 51°14.938 2°54.47 -999 2.965872 32.26249 4.04892
2009-02-03 08:03:48 51°14.953 2°54.456 -999 2.967942 32.284392 3.979271
2009-02-03 08:03:53 51°14.968 2°54.443 -999 2.969701 32.302563 3.979271
2009-02-03 08:03:58 51°14.983 2°54.43 -999 2.974254 32.355303 3.979271
2009-02-03 08:04:03 51°14.999 2°54.417 -999 2.980567 32.426217 3.909623
2009-02-03 08:04:08 51°15.014 2°54.404 -999 2.985431 32.47872 3.874799
2009-02-03 08:04:13 51°15.029 2°54.391 -999 2.985431 32.47872 3.874799
2009-02-03 08:04:18 51°15.045 2°54.379 -999 2.985949 32.483945 3.839975
2009-02-03 08:04:23 51°15.06 2°54.366 -999 2.989985 32.531473 3.805151
2009-02-03 08:04:28 51°15.075 2°54.353 -999 2.992055 32.553367 3.770327
2009-02-03 08:04:33 51°15.09 2°54.339 -999 2.996919 32.610859 3.770327
2009-02-03 08:04:38 51°15.105 2°54.326 -999 2.998886 32.631508 3.735503
2009-02-03 08:04:42 51°15.117 2°54.316 -999 2.998886 32.631508 3.735503
2009-02-03 08:04:47 51°15.132 2°54.302 -999 3.002508 32.665064 3.805151
2009-02-03 08:04:52 51°15.146 2°54.29 -999 3.004992 32.68392 3.839975
2009-02-03 08:04:57 51°15.161 2°54.277 -999 3.008614 32.71545 3.805151
2009-02-03 08:05:02 51°15.176 2°54.264 -999 3.012857 32.75142 3.805151
2009-02-03 08:05:07 51°15.191 2°54.251 -999 3.019274 32.814485 3.770327
2009-02-03 08:05:12 51°15.206 2°54.239 -999 3.019274 32.814485 3.770327
2009-02-03 08:05:17 51°15.221 2°54.226 -999 3.024759 32.864321 3.735503
2009-02-03 08:05:22 51°15.236 2°54.213 -999 3.028382 32.894769 3.735503
2009-02-03 08:05:27 51°15.25 2°54.2 -999 3.030452 32.90656 3.596207
2009-02-03 08:05:32 51°15.265 2°54.187 -999 3.03573 32.960884 3.561383
2009-02-03 08:05:37 51°15.28 2°54.175 -999 3.035834 32.960114 3.456911
2009-02-03 08:05:42 51°15.295 2°54.162 -999 3.035834 32.960114 3.456911
2009-02-03 08:05:47 51°15.31 2°54.15 -999 3.034799 32.9497 3.352439
2009-02-03 08:05:52 51°15.325 2°54.137 -999 3.034385 32.956805 3.28279
2009-02-03 08:05:57 51°15.34 2°54.125 -999 3.02714 32.883872 3.143494
2009-02-03 08:06:02 51°15.355 2°54.111 -999 3.025794 32.880775 3.073846
2009-02-03 08:06:07 51°15.369 2°54.099 -999 3.022172 32.859357 2.969374
2009-02-03 08:06:12 51°15.384 2°54.086 -999 3.022172 32.859357 2.969374
2009-02-03 08:06:17 51°15.399 2°54.073 -999 3.016894 32.813985 2.969374
2009-02-03 08:06:22 51°15.414 2°54.06 -999 3.012961 32.782756 2.864902
2009-02-03 08:06:27 51°15.429 2°54.048 -999 3.005406 32.713943 2.795254
2009-02-03 08:06:32 51°15.444 2°54.035 -999 3.003233 32.707844 2.795254
2009-02-03 08:06:37 51°15.459 2°54.023 -999 2.998368 32.661317 2.795254
2009-02-03 08:06:42 51°15.474 2°54.011 -999 2.998368 32.661317 2.795254
2009-02-03 08:06:47 51°15.489 2°53.999 -999 2.993504 32.619776 2.725606
2009-02-03 08:06:52 51°15.505 2°53.987 -999 2.9904 32.590393 2.76043
2009-02-03 08:06:57 51°15.52 2°53.975 -999 2.988433 32.572712 2.76043
2009-02-03 08:07:02 51°15.535 2°53.963 -999 2.98833 32.574467 2.725606
2009-02-03 08:07:07 51°15.551 2°53.951 -999 2.983673 32.518375 2.725606
2009-02-03 08:07:12 51°15.566 2°53.939 -999 2.983673 32.518375 2.725606
2009-02-03 08:07:17 51°15.581 2°53.927 -999 2.984087 32.526357 2.690782
2009-02-03 08:07:22 51°15.596 2°53.915 -999 2.984501 32.534341 2.690782
2009-02-03 08:07:27 51°15.612 2°53.903 -999 2.984087 32.529354 2.725606
2009-02-03 08:07:32 51°15.627 2°53.891 -999 2.983569 32.526119 2.690782
2009-02-03 08:07:37 51°15.642 2°53.878 -999 2.981292 32.503686 2.655957
2009-02-03 08:07:42 51°15.657 2°53.866 -999 2.981292 32.503686 2.655957
2009-02-03 08:07:47 51°15.672 2°53.853 -999 2.980568 32.499952 2.621133
2009-02-03 08:07:52 51°15.688 2°53.84 -999 2.977049 32.46255 2.655957
2009-02-03 08:07:57 51°15.703 2°53.826 -999 2.976222 32.45956 2.690782
2009-02-03 08:08:02 51°15.718 2°53.813 -999 2.974876 32.448336 2.725606
2009-02-03 08:08:07 51°15.732 2°53.799 -999 2.973634 32.43736 2.795254
2009-02-03 08:08:12 51°15.747 2°53.786 -999 2.973634 32.43736 2.795254
2009-02-03 08:08:17 51°15.762 2°53.772 -999 2.976325 32.471788 2.93455
2009-02-03 08:08:22 51°15.777 2°53.759 -999 2.976118 32.467296 3.039022
2009-02-03 08:08:27 51°15.792 2°53.745 -999 2.974566 32.444595 3.213142
2009-02-03 08:08:32 51°15.807 2°53.732 -999 2.97529 32.450331 3.28279
2009-02-03 08:08:37 51°15.822 2°53.718 -999 2.974876 32.442351 3.387263
2009-02-03 08:08:42 51°15.837 2°53.705 -999 2.974876 32.442351 3.387263
2009-02-03 08:08:47 51°15.852 2°53.691 -999 2.977567 32.470781 3.422087
2009-02-03 08:08:52 51°15.867 2°53.678 -999 2.97736 32.465293 3.422087
2009-02-03 08:08:57 51°15.882 2°53.664 -999 2.97767 32.47103 3.387263
2009-02-03 08:09:02 51°15.897 2°53.651 -999 2.978084 32.478014 3.387263
2009-02-03 08:09:07 51°15.912 2°53.638 -999 2.978809 32.486743 3.352439
2009-02-03 08:09:12 51°15.927 2°53.625 -999 2.978809 32.486743 3.352439
2009-02-03 08:09:17 51°15.942 2°53.612 -999 2.977774 32.474273 3.247966
2009-02-03 08:09:22 51°15.957 2°53.598 -999 2.979119 32.491483 3.28279
2009-02-03 08:09:27 51°15.973 2°53.585 -999 2.979223 32.494728 3.213142
2009-02-03 08:09:32 51°15.988 2°53.572 -999 2.978291 32.482505 3.178318
2009-02-03 08:09:37 51°16.003 2°53.559 -999 2.979016 32.491235 3.143494
2009-02-03 08:09:42 51°16.018 2°53.546 -999 2.979016 32.491235 3.143494
2009-02-03 08:09:47 51°16.034 2°53.534 -999 2.978084 32.484005 3.073846
2009-02-03 08:09:52 51°16.049 2°53.522 -999 2.978809 32.494734 3.073846
2009-02-03 08:09:57 51°16.064 2°53.51 -999 2.979947 32.512454 3.039022
2009-02-03 08:10:02 51°16.08 2°53.498 -999 2.978705 32.498483 3.004198
2009-02-03 08:10:07 51°16.095 2°53.486 -999 2.977257 32.485014 2.969374
2009-02-03 08:10:12 51°16.11 2°53.475 -999 2.977257 32.485014 2.969374
2009-02-03 08:10:18 51°16.129 2°53.461 -999 2.976532 32.481275 2.93455
2009-02-03 08:10:22 51°16.141 2°53.452 -999 2.977257 32.49001 2.899726
2009-02-03 08:10:27 51°16.157 2°53.44 -999 2.975083 32.467802 2.899726
2009-02-03 08:10:32 51°16.172 2°53.429 -999 2.97291 32.448587 2.830078
2009-02-03 08:10:37 51°16.188 2°53.417 -999 2.971151 32.435357 2.795254
2009-02-03 08:10:42 51°16.203 2°53.406 -999 2.971151 32.435357 2.795254
2009-02-03 08:10:47 51°16.218 2°53.394 -999 2.969806 32.427116 2.690782
2009-02-03 08:10:52 51°16.234 2°53.382 -999 2.970737 32.446344 2.690782
2009-02-03 08:10:57 51°16.249 2°53.371 -999 2.970013 32.444597 2.690782
2009-02-03 08:11:02 51°16.265 2°53.359 -999 2.96815 32.426112 2.655957
2009-02-03 08:11:06 51°16.277 2°53.35 -999 2.966391 32.408873 2.655957
2009-02-03 08:11:12 51°16.295 2°53.336 -999 2.966391 32.408873 2.655957
2009-02-03 08:11:17 51°16.311 2°53.324 -999 2.966598 32.417364 2.655957
2009-02-03 08:11:22 51°16.326 2°53.312 -999 2.964735 32.397873 2.621133
2009-02-03 08:11:27 51°16.341 2°53.3 -999 2.964631 32.399619 2.621133
2009-02-03 08:11:32 51°16.356 2°53.288 -999 2.963286 32.388369 2.621133
2009-02-03 08:11:37 51°16.372 2°53.276 -999 2.962562 32.383616 2.621133
2009-02-03 08:11:42 51°16.387 2°53.264 -999 2.962562 32.383616 2.621133
2009-02-03 08:11:47 51°16.402 2°53.251 -999 2.961216 32.368369 2.655957
2009-02-03 08:11:52 51°16.418 2°53.239 -999 2.959664 32.350624 2.655957
2009-02-03 08:11:57 51°16.433 2°53.227 -999 2.959457 32.349122 2.690782
2009-02-03 08:12:02 51°16.448 2°53.215 -999 2.960078 32.356619 2.690782
2009-02-03 08:12:07 51°16.463 2°53.202 -999 2.959147 32.345373 2.725606
2009-02-03 08:12:12 51°16.479 2°53.19 -999 2.959147 32.345373 2.725606
2009-02-03 08:12:17 51°16.494 2°53.178 -999 2.958422 32.33563 2.725606
2009-02-03 08:12:22 51°16.51 2°53.166 -999 2.960803 32.363371 2.795254
2009-02-03 08:12:27 51°16.525 2°53.153 -999 2.959975 32.353375 2.830078
2009-02-03 08:12:32 51°16.541 2°53.141 -999 2.957077 32.317395 2.830078
2009-02-03 08:12:37 51°16.556 2°53.129 -999 2.957594 32.320652 2.864902
2009-02-03 08:12:42 51°16.572 2°53.116 -999 2.957594 32.320652 2.864902
2009-02-03 08:12:47 51°16.587 2°53.104 -999 2.961423 32.364881 2.864902
2009-02-03 08:12:52 51°16.603 2°53.091 -999 2.962562 32.377626 2.864902
2009-02-03 08:12:57 51°16.618 2°53.079 -999 2.962976 32.380627 2.864902
2009-02-03 08:13:02 51°16.634 2°53.067 -999 2.963597 32.386127 2.864902
2009-02-03 08:13:07 51°16.65 2°53.055 -999 2.963286 32.380383 2.830078
2009-02-03 08:13:12 51°16.665 2°53.043 -999 2.963286 32.380383 2.830078
2009-02-03 08:13:17 51°16.681 2°53.031 -999 2.964321 32.391877 2.830078
2009-02-03 08:13:22 51°16.696 2°53.018 -999 2.964528 32.393377 2.830078
2009-02-03 08:13:26 51°16.709 2°53.009 -999 2.963597 32.383133 2.830078
2009-02-03 08:13:32 51°16.727 2°52.994 -999 2.962458 32.371387 2.864902
2009-02-03 08:13:37 51°16.743 2°52.982 -999 2.963597 32.385129 2.864902
2009-02-03 08:13:42 51°16.758 2°52.969 -999 2.963597 32.385129 2.864902
2009-02-03 08:13:47 51°16.773 2°52.956 -999 2.961113 32.355149 2.899726
2009-02-03 08:13:52 51°16.789 2°52.944 -999 2.962148 32.365645 2.899726
2009-02-03 08:13:57 51°16.804 2°52.931 -999 2.960802 32.350404 2.93455
2009-02-03 08:14:02 51°16.819 2°52.919 -999 2.960388 32.345408 2.93455
2009-02-03 08:14:07 51°16.835 2°52.907 -999 2.960595 32.346909 2.93455
2009-02-03 08:14:12 51°16.85 2°52.895 -999 2.960595 32.346909 2.93455
2009-02-03 08:14:17 51°16.865 2°52.882 -999 2.96339 32.379637 2.899726
2009-02-03 08:14:22 51°16.881 2°52.87 -999 2.956559 32.295218 2.899726
2009-02-03 08:14:27 51°16.896 2°52.858 -999 2.967115 32.421612 2.899726
2009-02-03 08:14:31 51°16.908 2°52.848 -999 2.96784 32.431357 2.864902
2009-02-03 08:14:37 51°16.927 2°52.834 -999 2.968047 32.433855 2.93455
2009-02-03 08:14:42 51°16.943 2°52.821 -999 2.968047 32.433855 2.93455
2009-02-03 08:14:47 51°16.958 2°52.809 -999 2.965977 32.406872 2.93455
2009-02-03 08:14:52 51°16.974 2°52.797 -999 2.96577 32.40038 3.073846
2009-02-03 08:14:57 51°16.989 2°52.784 -999 2.953972 32.256053 2.93455
2009-02-03 08:15:02 51°17.004 2°52.771 -999 2.950868 32.216627 2.795254
2009-02-03 08:15:07 51°17.02 2°52.759 -999 2.960492 32.330715 2.76043
2009-02-03 08:15:12 51°17.036 2°52.746 -999 2.960492 32.330715 2.76043
2009-02-03 08:15:17 51°17.051 2°52.734 -999 2.975705 32.5123 2.76043
2009-02-03 08:15:22 51°17.067 2°52.721 -999 2.976326 32.516791 2.76043
2009-02-03 08:15:27 51°17.082 2°52.709 -999 2.976843 32.519031 2.76043
2009-02-03 08:15:32 51°17.097 2°52.696 -999 2.977878 32.529519 2.690782
2009-02-03 08:15:37 51°17.113 2°52.684 -999 2.979637 32.54875 2.725606
2009-02-03 08:15:42 51°17.128 2°52.672 -999 2.979637 32.54875 2.725606
2009-02-03 08:15:47 51°17.144 2°52.659 -999 2.977878 32.524511 2.725606
2009-02-03 08:15:52 51°17.158 2°52.645 -999 2.98119 32.562474 2.76043
2009-02-03 08:15:57 51°17.174 2°52.633 -999 2.981293 32.562721 2.725606
2009-02-03 08:16:02 51°17.189 2°52.62 -999 2.984605 32.599682 2.690782
2009-02-03 08:16:07 51°17.204 2°52.607 -999 2.984087 32.590427 2.690782
2009-02-03 08:16:12 51°17.22 2°52.596 -999 2.984087 32.590427 2.690782
2009-02-03 08:16:17 51°17.235 2°52.584 -999 2.98595 32.607891 2.690782
2009-02-03 08:16:22 51°17.251 2°52.574 -999 2.986054 32.606129 2.690782
2009-02-03 08:16:27 51°17.267 2°52.562 -999 2.987502 32.620601 2.690782
2009-02-03 08:16:32 51°17.283 2°52.553 -999 2.98833 32.625572 2.690782
2009-02-03 08:16:37 51°17.298 2°52.542 -999 2.991125 32.656274 2.655957
2009-02-03 08:16:42 51°17.315 2°52.534 -999 2.991125 32.656274 2.655957
2009-02-03 08:16:46 51°17.328 2°52.527 -999 2.991642 32.658499 2.690782
2009-02-03 08:16:52 51°17.348 2°52.518 -999 2.99247 32.665473 2.725606
2009-02-03 08:16:57 51°17.364 2°52.511 -999 2.993194 32.672203 2.725606
2009-02-03 08:17:02 51°17.381 2°52.505 -999 2.99247 32.660451 2.725606
2009-02-03 08:17:07 51°17.398 2°52.499 -999 2.991745 32.649705 2.76043
2009-02-03 08:17:12 51°17.415 2°52.493 -999 2.991745 32.649705 2.76043
2009-02-03 08:17:17 51°17.432 2°52.488 -999 2.992677 32.658931 2.795254
2009-02-03 08:17:22 51°17.449 2°52.484 -999 2.993091 32.661915 2.795254
2009-02-03 08:17:27 51°17.466 2°52.48 -999 2.991435 32.640942 2.864902
2009-02-03 08:17:32 51°17.483 2°52.476 -999 2.992056 32.647427 2.864902
2009-02-03 08:17:37 51°17.501 2°52.473 -999 2.989986 32.622469 2.93455
2009-02-03 08:17:42 51°17.518 2°52.47 -999 2.989986 32.622469 2.93455
2009-02-03 08:17:47 51°17.535 2°52.467 -999 2.991124 32.635192 2.899726
2009-02-03 08:17:51 51°17.549 2°52.465 -999 2.991745 32.640673 2.899726
2009-02-03 08:17:57 51°17.57 2°52.462 -999 2.988951 32.605981 2.93455
2009-02-03 08:18:02 51°17.588 2°52.459 -999 2.988951 32.606984 2.899726
2009-02-03 08:18:07 51°17.605 2°52.457 -999 2.990607 32.625944 2.830078
2009-02-03 08:18:12 51°17.622 2°52.455 -999 2.990607 32.625944 2.830078
2009-02-03 08:18:17 51°17.64 2°52.452 -999 2.991952 32.640158 2.864902
2009-02-03 08:18:22 51°17.657 2°52.452 -999 2.993815 32.662619 2.795254
2009-02-03 08:18:27 51°17.674 2°52.45 -999 2.994747 32.670837 2.795254
2009-02-03 08:18:32 51°17.691 2°52.448 -999 2.995161 32.67382 2.76043
2009-02-03 08:18:37 51°17.709 2°52.446 -999 2.996402 32.686784 2.76043
2009-02-03 08:18:42 51°17.727 2°52.446 -999 2.996402 32.686784 2.76043
2009-02-03 08:18:47 51°17.744 2°52.444 -999 2.997541 32.697496 2.795254
2009-02-03 08:18:52 51°17.761 2°52.443 -999 2.998472 32.705711 2.795254
2009-02-03 08:18:57 51°17.779 2°52.442 -999 2.999714 32.715657 2.795254
2009-02-03 08:19:02 51°17.796 2°52.441 -999 3.000439 32.719365 2.76043
2009-02-03 08:19:07 51°17.814 2°52.439 -999 3.001577 32.729066 2.76043
2009-02-03 08:19:12 51°17.831 2°52.437 -999 3.001577 32.729066 2.76043
2009-02-03 08:19:17 51°17.848 2°52.435 -999 3.003233 32.743996 2.795254
2009-02-03 08:19:22 51°17.865 2°52.434 -999 3.004475 32.75494 2.795254
2009-02-03 08:19:27 51°17.883 2°52.432 -999 3.00551 32.762383 2.795254
2009-02-03 08:19:32 51°17.9 2°52.431 -999 3.007062 32.776058 2.864902
2009-02-03 08:19:37 51°17.917 2°52.43 -999 3.008097 32.784503 2.830078
2009-02-03 08:19:42 51°17.935 2°52.429 -999 3.008097 32.784503 2.830078
2009-02-03 08:19:47 51°17.952 2°52.427 -999 3.009029 32.789688 2.899726
2009-02-03 08:19:52 51°17.969 2°52.425 -999 3.00996 32.793865 2.864902
2009-02-03 08:19:57 51°17.987 2°52.423 -999 3.010891 32.800053 2.899726
2009-02-03 08:20:02 51°18.004 2°52.422 -999 3.011823 32.80624 2.899726
2009-02-03 08:20:06 51°18.018 2°52.42 -999 3.012547 32.811945 2.830078
2009-02-03 08:20:12 51°18.039 2°52.418 -999 3.012547 32.811945 2.830078
2009-02-03 08:20:17 51°18.056 2°52.415 -999 3.013686 32.821627 2.864902
2009-02-03 08:20:22 51°18.073 2°52.413 -999 3.0141 32.823593 2.899726
2009-02-03 08:20:27 51°18.09 2°52.409 -999 3.015135 32.833033 2.899726
2009-02-03 08:20:32 51°18.107 2°52.407 -999 3.015963 32.840987 2.93455
2009-02-03 08:20:37 51°18.124 2°52.404 -999 3.016377 32.842951 2.969374
2009-02-03 08:20:42 51°18.142 2°52.403 -999 3.016377 32.842951 2.969374
2009-02-03 08:20:47 51°18.159 2°52.4 -999 3.01648 32.842184 2.969374
2009-02-03 08:20:52 51°18.176 2°52.399 -999 3.016377 32.838926 2.969374
2009-02-03 08:20:57 51°18.193 2°52.397 -999 3.017308 32.848124 3.004198
2009-02-03 08:21:02 51°18.211 2°52.395 -999 3.016998 32.842374 3.004198
2009-02-03 08:21:07 51°18.228 2°52.393 -999 3.016997 32.840362 3.039022
2009-02-03 08:21:11 51°18.242 2°52.392 -999 3.016997 32.840362 3.039022
2009-02-03 08:21:17 51°18.263 2°52.39 -999 3.017204 32.840841 3.004198
2009-02-03 08:21:22 51°18.28 2°52.388 -999 3.017204 32.838829 3.039022
2009-02-03 08:21:27 51°18.297 2°52.386 -999 3.017204 32.837823 3.039022
2009-02-03 08:21:32 51°18.314 2°52.384 -999 3.01679 32.831836 3.004198
2009-02-03 08:21:37 51°18.332 2°52.382 -999 3.016894 32.832076 3.004198
2009-02-03 08:21:42 51°18.349 2°52.38 -999 3.016894 32.832076 3.004198
2009-02-03 08:21:47 51°18.366 2°52.379 -999 3.017101 32.835572 3.004198
2009-02-03 08:21:52 51°18.384 2°52.378 -999 3.016997 32.834327 3.004198
2009-02-03 08:21:57 51°18.401 2°52.378 -999 3.016894 32.834087 2.969374
2009-02-03 08:22:02 51°18.419 2°52.377 -999 3.016583 32.829346 3.004198
2009-02-03 08:22:07 51°18.436 2°52.377 -999 3.01679 32.831836 3.004198
2009-02-03 08:22:12 51°18.454 2°52.377 -999 3.01679 32.831836 3.004198
2009-02-03 08:22:17 51°18.471 2°52.377 -999 3.016894 32.83107 3.039022
2009-02-03 08:22:22 51°18.489 2°52.377 -999 3.016894 32.830065 3.004198
2009-02-03 08:22:27 51°18.506 2°52.377 -999 3.01679 32.827814 2.969374
2009-02-03 08:22:32 51°18.524 2°52.377 -999 3.016894 32.829059 2.969374
2009-02-03 08:22:37 51°18.541 2°52.377 -999 3.01679 32.827814 2.969374
2009-02-03 08:22:42 51°18.559 2°52.377 -999 3.01679 32.827814 2.969374
2009-02-03 08:22:47 51°18.576 2°52.377 -999 3.017204 32.832794 2.969374
2009-02-03 08:22:52 51°18.594 2°52.377 -999 3.016894 32.827048 2.969374
2009-02-03 08:22:57 51°18.612 2°52.377 -999 3.017722 32.836003 2.93455
2009-02-03 08:23:02 51°18.629 2°52.38 -999 3.017308 32.830018 2.969374
2009-02-03 08:23:07 51°18.647 2°52.382 -999 3.017929 32.837487 3.004198
2009-02-03 08:23:12 51°18.664 2°52.385 -999 3.017929 32.837487 3.004198
2009-02-03 08:23:17 51°18.681 2°52.388 -999 3.017722 32.833992 3.004198
2009-02-03 08:23:22 51°18.699 2°52.391 -999 3.018136 32.835955 3.039022
2009-02-03 08:23:26 51°18.713 2°52.394 -999 3.018653 32.838158 3.073846
2009-02-03 08:23:32 51°18.734 2°52.399 -999 3.01855 32.831888 3.10867
2009-02-03 08:23:37 51°18.751 2°52.403 -999 3.019171 32.835334 3.073846
2009-02-03 08:23:42 51°18.768 2°52.407 -999 3.019171 32.835334 3.073846
2009-02-03 08:23:47 51°18.785 2°52.411 -999 3.018964 32.829831 3.073846
2009-02-03 08:23:52 51°18.802 2°52.415 -999 3.019585 32.833278 3.143494
2009-02-03 08:23:57 51°18.819 2°52.418 -999 3.020413 32.840217 3.10867
2009-02-03 08:24:02 51°18.837 2°52.422 -999 3.020309 32.835959 3.10867
2009-02-03 08:24:07 51°18.854 2°52.426 -999 3.020516 32.836438 3.143494
2009-02-03 08:24:12 51°18.871 2°52.43 -999 3.020516 32.836438 3.143494
2009-02-03 08:24:17 51°18.888 2°52.434 -999 3.02062 32.835673 3.10867
2009-02-03 08:24:22 51°18.905 2°52.439 -999 3.020102 32.827446 3.10867
2009-02-03 08:24:27 51°18.922 2°52.443 -999 3.019274 32.817496 3.10867
2009-02-03 08:24:31 51°18.935 2°52.447 -999 3.017722 32.799845 3.073846
2009-02-03 08:24:37 51°18.956 2°52.452 -999 3.01679 32.792665 3.10867
2009-02-03 08:24:42 51°18.973 2°52.456 -999 3.01679 32.792665 3.10867
2009-02-03 08:24:47 51°18.99 2°52.46 -999 3.014824 32.773046 3.004198
2009-02-03 08:24:52 51°19.007 2°52.465 -999 3.012961 32.757675 2.969374
2009-02-03 08:24:57 51°19.024 2°52.469 -999 3.011201 32.740538 3.004198
2009-02-03 08:25:02 51°19.041 2°52.473 -999 3.009338 32.723156 2.93455
2009-02-03 08:25:07 51°19.058 2°52.477 -999 3.007475 32.707774 2.969374
2009-02-03 08:25:12 51°19.076 2°52.481 -999 3.007475 32.707774 2.969374
2009-02-03 08:25:17 51°19.092 2°52.485 -999 3.006027 32.69436 2.969374
2009-02-03 08:25:22 51°19.11 2°52.489 -999 3.004371 32.677456 2.969374
2009-02-03 08:25:27 51°19.127 2°52.493 -999 3.003129 32.665527 2.969374
2009-02-03 08:25:32 51°19.144 2°52.497 -999 3.001887 32.654597 3.004198
2009-02-03 08:25:37 51°19.161 2°52.5 -999 3.000852 32.646154 3.004198
2009-02-03 08:25:42 51°19.178 2°52.505 -999 3.000852 32.646154 3.004198
2009-02-03 08:25:47 51°19.195 2°52.511 -999 2.999817 32.63571 3.004198
2009-02-03 08:25:52 51°19.212 2°52.517 -999 2.999092 32.626999 3.039022
2009-02-03 08:25:57 51°19.228 2°52.523 -999 2.998782 32.624265 3.039022
2009-02-03 08:26:02 51°19.245 2°52.529 -999 2.997851 32.614065 3.004198
2009-02-03 08:26:07 51°19.262 2°52.536 -999 2.997851 32.614065 3.039022
2009-02-03 08:26:12 51°19.279 2°52.543 -999 2.997851 32.614065 3.039022
2009-02-03 08:26:17 51°19.295 2°52.551 -999 2.997023 32.603112 2.969374
2009-02-03 08:26:22 51°19.312 2°52.558 -999 2.997126 32.604356 2.969374
2009-02-03 08:26:27 51°19.329 2°52.566 -999 2.995988 32.593665 2.969374
2009-02-03 08:26:32 51°19.345 2°52.573 -999 2.99547 32.58944 2.969374
2009-02-03 08:26:37 51°19.362 2°52.582 -999 2.994953 32.586214 2.969374
2009-02-03 08:26:42 51°19.378 2°52.59 -999 2.994953 32.586214 2.969374
2009-02-03 08:26:46 51°19.392 2°52.597 -999 2.993918 32.576765 2.899726
2009-02-03 08:26:52 51°19.412 2°52.608 -999 2.993297 32.573291 2.899726
2009-02-03 08:26:57 51°19.428 2°52.617 -999 2.992676 32.56782 2.864902
2009-02-03 08:27:02 51°19.445 2°52.626 -999 2.992365 32.566083 2.864902
2009-02-03 08:27:07 51°19.461 2°52.635 -999 2.991952 32.561104 2.864902
2009-02-03 08:27:12 51°19.478 2°52.644 -999 2.991952 32.561104 2.864902
2009-02-03 08:27:17 51°19.494 2°52.654 -999 2.991641 32.55737 2.830078
2009-02-03 08:27:22 51°19.511 2°52.662 -999 2.991538 32.556125 2.830078
2009-02-03 08:27:27 51°19.527 2°52.672 -999 2.990813 32.547413 2.795254
2009-02-03 08:27:32 51°19.544 2°52.68 -999 2.99102 32.549902 2.76043
2009-02-03 08:27:37 51°19.56 2°52.689 -999 2.99102 32.5509 2.76043
2009-02-03 08:27:42 51°19.577 2°52.697 -999 2.99102 32.5509 2.76043
2009-02-03 08:27:47 51°19.593 2°52.706 -999 2.990813 32.548411 2.725606
2009-02-03 08:27:51 51°19.607 2°52.712 -999 2.990813 32.548411 2.725606
2009-02-03 08:27:57 51°19.626 2°52.723 -999 2.990606 32.544924 2.76043
2009-02-03 08:28:02 51°19.643 2°52.731 -999 2.990917 32.545664 2.725606
2009-02-03 08:28:07 51°19.66 2°52.74 -999 2.990917 32.542672 2.795254
2009-02-03 08:28:12 51°19.676 2°52.748 -999 2.990917 32.542672 2.795254
2009-02-03 08:28:17 51°19.693 2°52.757 -999 2.990606 32.53495 2.725606
2009-02-03 08:28:22 51°19.71 2°52.764 -999 2.990709 32.533203 2.76043
2009-02-03 08:28:27 51°19.726 2°52.773 -999 2.990088 32.522749 2.725606
2009-02-03 08:28:32 51°19.743 2°52.78 -999 2.989571 32.515533 2.795254
2009-02-03 08:28:37 51°19.76 2°52.788 -999 2.988847 32.506826 2.76043
2009-02-03 08:28:42 51°19.777 2°52.796 -999 2.988847 32.506826 2.76043
2009-02-03 08:28:47 51°19.794 2°52.804 -999 2.988743 32.504586 2.795254
2009-02-03 08:28:52 51°19.811 2°52.812 -999 2.988536 32.501103 2.795254
2009-02-03 08:28:57 51°19.827 2°52.821 -999 2.987915 32.492645 2.795254
2009-02-03 08:29:02 51°19.844 2°52.829 -999 2.987501 32.488666 2.76043
2009-02-03 08:29:07 51°19.861 2°52.837 -999 2.986984 32.481453 2.76043
2009-02-03 08:29:12 51°19.878 2°52.845 -999 2.986984 32.481453 2.76043
2009-02-03 08:29:17 51°19.895 2°52.854 -999 2.986673 32.477722 2.725606
2009-02-03 08:29:22 51°19.912 2°52.862 -999 2.985949 32.470012 2.76043
2009-02-03 08:29:27 51°19.929 2°52.87 -999 2.985638 32.468271 2.795254
2009-02-03 08:29:32 51°19.946 2°52.878 -999 2.985017 32.461804 2.76043
2009-02-03 08:29:37 51°19.963 2°52.886 -999 2.984914 32.462549 2.725606
2009-02-03 08:29:42 51°19.979 2°52.894 -999 2.984914 32.462549 2.725606
2009-02-03 08:29:47 51°19.996 2°52.902 -999 2.984086 32.455583 2.725606
2009-02-03 08:29:52 51°20.013 2°52.91 -999 2.983465 32.449115 2.725606
2009-02-03 08:29:57 51°20.03 2°52.918 -999 2.983465 32.451104 2.725606
2009-02-03 08:30:02 51°20.047 2°52.927 -999 2.982948 32.444885 2.725606
2009-02-03 08:30:06 51°20.061 2°52.933 -999 2.982844 32.442647 2.76043
2009-02-03 08:30:12 51°20.081 2°52.942 -999 2.982844 32.442647 2.76043
2009-02-03 08:30:17 51°20.098 2°52.95 -999 2.982637 32.44016 2.690782
2009-02-03 08:30:22 51°20.115 2°52.958 -999 2.982637 32.44016 2.655957
2009-02-03 08:30:27 51°20.132 2°52.966 -999 2.981602 32.428716 2.690782
2009-02-03 08:30:32 51°20.15 2°52.973 -999 2.981602 32.427723 2.690782
2009-02-03 08:30:37 51°20.166 2°52.981 -999 2.981499 32.425485 2.690782
2009-02-03 08:30:42 51°20.184 2°52.988 -999 2.981499 32.425485 2.690782
2009-02-03 08:30:47 51°20.201 2°52.995 -999 2.980153 32.408325 2.690782
2009-02-03 08:30:52 51°20.218 2°53.003 -999 2.97829 32.383959 2.655957
2009-02-03 08:30:57 51°20.236 2°53.009 -999 2.97798 32.380229 2.655957
2009-02-03 08:31:02 51°20.253 2°53.016 -999 2.980153 32.406339 2.621133
2009-02-03 08:31:07 51°20.27 2°53.023 -999 2.980153 32.408325 2.621133
2009-02-03 08:31:11 51°20.284 2°53.029 -999 2.980153 32.408325 2.621133
2009-02-03 08:31:17 51°20.305 2°53.038 -999 2.979946 32.406832 2.586309
2009-02-03 08:31:22 51°20.322 2°53.046 -999 2.979222 32.39912 2.551485
2009-02-03 08:31:27 51°20.339 2°53.054 -999 2.978911 32.397375 2.586309
2009-02-03 08:31:32 51°20.356 2°53.062 -999 2.978704 32.394888 2.586309
2009-02-03 08:31:37 51°20.374 2°53.069 -999 2.978083 32.386434 2.586309
2009-02-03 08:31:42 51°20.391 2°53.076 -999 2.978083 32.386434 2.586309
2009-02-03 08:31:47 51°20.408 2°53.083 -999 2.978601 32.39563 2.551485
2009-02-03 08:31:52 51°20.425 2°53.091 -999 2.978083 32.390405 2.586309
2009-02-03 08:31:57 51°20.443 2°53.099 -999 2.978601 32.396623 2.551485
2009-02-03 08:32:02 51°20.46 2°53.107 -999 2.978601 32.397616 2.551485
2009-02-03 08:32:07 51°20.478 2°53.115 -999 2.978601 32.397616 2.516661
2009-02-03 08:32:12 51°20.495 2°53.123 -999 2.978601 32.397616 2.516661
2009-02-03 08:32:17 51°20.512 2°53.131 -999 2.978601 32.396623 2.551485
2009-02-03 08:32:22 51°20.53 2°53.14 -999 2.978704 32.396874 2.551485
2009-02-03 08:32:26 51°20.544 2°53.146 -999 2.979118 32.399862 2.516661
2009-02-03 08:32:32 51°20.565 2°53.157 -999 2.979429 32.401607 2.516661
2009-02-03 08:32:37 51°20.582 2°53.166 -999 2.979636 32.402108 2.551485
2009-02-03 08:32:42 51°20.599 2°53.175 -999 2.979636 32.402108 2.551485
2009-02-03 08:32:47 51°20.617 2°53.184 -999 2.979843 32.403602 2.516661
2009-02-03 08:32:52 51°20.634 2°53.191 -999 2.980257 32.407583 2.516661
2009-02-03 08:32:57 51°20.652 2°53.199 -999 2.979946 32.40286 2.481837
2009-02-03 08:33:02 51°20.669 2°53.208 -999 2.980257 32.40659 2.481837
2009-02-03 08:33:07 51°20.686 2°53.215 -999 2.980257 32.404604 2.481837
2009-02-03 08:33:12 51°20.704 2°53.223 -999 2.980257 32.404604 2.481837
2009-02-03 08:33:17 51°20.721 2°53.23 -999 2.980774 32.410821 2.481837
2009-02-03 08:33:22 51°20.739 2°53.238 -999 2.980567 32.408334 2.516661
2009-02-03 08:33:26 51°20.753 2°53.244 -999 2.980671 32.409577 2.516661
2009-02-03 08:33:32 51°20.774 2°53.253 -999 2.980878 32.412064 2.481837
2009-02-03 08:33:37 51°20.792 2°53.262 -999 2.981499 32.418531 2.481837
2009-02-03 08:33:42 51°20.809 2°53.27 -999 2.981499 32.418531 2.481837
2009-02-03 08:33:47 51°20.826 2°53.279 -999 2.980981 32.410328 2.516661
2009-02-03 08:33:52 51°20.844 2°53.287 -999 2.981913 32.420525 2.447013
2009-02-03 08:33:57 51°20.862 2°53.297 -999 2.982119 32.422018 2.481837
2009-02-03 08:34:02 51°20.879 2°53.304 -999 2.982326 32.425498 2.481837
2009-02-03 08:34:07 51°20.897 2°53.312 -999 2.983051 32.433207 2.481837
2009-02-03 08:34:12 51°20.914 2°53.321 -999 2.983051 32.433207 2.481837
2009-02-03 08:34:17 51°20.932 2°53.328 -999 2.983258 32.433707 2.516661
2009-02-03 08:34:22 51°20.949 2°53.336 -999 2.984293 32.444152 2.481837
2009-02-03 08:34:26 51°20.963 2°53.343 -999 2.985121 32.450122 2.481837
2009-02-03 08:34:32 51°20.984 2°53.353 -999 2.986363 32.46007 2.447013
2009-02-03 08:34:37 51°21.001 2°53.361 -999 2.987294 32.465292 2.481837
2009-02-03 08:34:42 51°21.018 2°53.37 -999 2.987294 32.465292 2.481837
2009-02-03 08:34:47 51°21.035 2°53.378 -999 2.988743 32.476727 2.447013
2009-02-03 08:34:52 51°21.052 2°53.387 -999 2.989881 32.484432 2.481837
2009-02-03 08:34:57 51°21.069 2°53.395 -999 2.99133 32.495861 2.481837
2009-02-03 08:35:02 51°21.086 2°53.403 -999 2.992779 32.506293 2.481837
2009-02-03 08:35:07 51°21.103 2°53.412 -999 2.995056 32.525664 2.447013
2009-02-03 08:35:12 51°21.12 2°53.42 -999 2.995056 32.525664 2.447013
2009-02-03 08:35:17 51°21.137 2°53.429 -999 2.996711 32.537578 2.447013
2009-02-03 08:35:22 51°21.153 2°53.437 -999 2.999713 32.561648 2.447013
2009-02-03 08:35:27 51°21.17 2°53.445 -999 3.0023 32.578751 2.447013
2009-02-03 08:35:31 51°21.184 2°53.452 -999 3.005198 32.59857 2.412189
2009-02-03 08:35:37 51°21.204 2°53.462 -999 3.009234 32.627043 2.412189
2009-02-03 08:35:42 51°21.221 2°53.471 -999 3.009234 32.627043 2.412189
2009-02-03 08:35:47 51°21.237 2°53.479 -999 3.013477 32.656976 2.447013
2009-02-03 08:35:52 51°21.254 2°53.487 -999 3.016685 32.676481 2.412189
2009-02-03 08:35:57 51°21.271 2°53.496 -999 3.020929 32.709355 2.412189
2009-02-03 08:36:02 51°21.288 2°53.504 -999 3.025172 32.745194 2.377365
2009-02-03 08:36:07 51°21.304 2°53.512 -999 3.027863 32.763435 2.412189
2009-02-03 08:36:12 51°21.321 2°53.52 -999 3.027863 32.763435 2.412189
2009-02-03 08:36:17 51°21.337 2°53.529 -999 3.030036 32.776473 2.377365
2009-02-03 08:36:22 51°21.354 2°53.537 -999 3.032003 32.79002 2.377365
2009-02-03 08:36:27 51°21.371 2°53.546 -999 3.03459 32.80899 2.377365
2009-02-03 08:36:32 51°21.388 2°53.553 -999 3.037074 32.828709 2.342541
2009-02-03 08:36:37 51°21.404 2°53.562 -999 3.039558 32.84842 2.307717
2009-02-03 08:36:42 51°21.421 2°53.569 -999 3.039558 32.84842 2.307717
2009-02-03 08:36:47 51°21.438 2°53.578 -999 3.041111 32.859987 2.307717
2009-02-03 08:36:52 51°21.455 2°53.586 -999 3.042249 32.866604 2.272893
2009-02-03 08:36:57 51°21.472 2°53.593 -999 3.043491 32.875453 2.238069
2009-02-03 08:37:02 51°21.489 2°53.601 -999 3.044733 32.886297 2.238069
2009-02-03 08:37:07 51°21.505 2°53.608 -999 3.045768 32.892669 2.238069
2009-02-03 08:37:12 51°21.522 2°53.616 -999 3.045768 32.892669 2.238069
2009-02-03 08:37:17 51°21.538 2°53.626 -999 3.0467 32.899801 2.238069
2009-02-03 08:37:22 51°21.555 2°53.634 -999 3.047735 32.909166 2.203245
2009-02-03 08:37:27 51°21.571 2°53.646 -999 3.048045 32.909879 2.203245
2009-02-03 08:37:32 51°21.587 2°53.656 -999 3.04908 32.919242 2.203245
2009-02-03 08:37:37 51°21.603 2°53.667 -999 3.049494 32.921189 2.133597
2009-02-03 08:37:42 51°21.618 2°53.679 -999 3.049494 32.921189 2.133597
2009-02-03 08:37:47 51°21.634 2°53.692 -999 3.050115 32.925608 2.133597
2009-02-03 08:37:52 51°21.649 2°53.704 -999 3.050426 32.926319 2.168421
2009-02-03 08:37:57 51°21.665 2°53.717 -999 3.05115 32.932971 2.098773
2009-02-03 08:38:02 51°21.681 2°53.729 -999 3.05115 32.930974 2.063949
2009-02-03 08:38:07 51°21.696 2°53.742 -999 3.051978 32.93886 2.098773
2009-02-03 08:38:12 51°21.711 2°53.754 -999 3.051978 32.93886 2.098773
2009-02-03 08:38:17 51°21.727 2°53.767 -999 3.052289 32.940569 2.098773
2009-02-03 08:38:22 51°21.742 2°53.78 -999 3.052496 32.941042 2.098773
2009-02-03 08:38:27 51°21.757 2°53.792 -999 3.05291 32.943986 2.098773
2009-02-03 08:38:32 51°21.773 2°53.805 -999 3.053427 32.949164 2.098773
2009-02-03 08:38:37 51°21.788 2°53.818 -999 3.054048 32.955577 2.063949
2009-02-03 08:38:42 51°21.803 2°53.831 -999 3.054048 32.955577 2.063949
2009-02-03 08:38:47 51°21.819 2°53.843 -999 3.054152 32.955813 2.063949
2009-02-03 08:38:52 51°21.835 2°53.851 -999 3.054773 32.961227 2.133597
2009-02-03 08:38:57 51°21.851 2°53.861 -999 3.054669 32.957993 2.098773
2009-02-03 08:39:02 51°21.868 2°53.868 -999 3.055084 32.960936 2.098773
2009-02-03 08:39:06 51°21.881 2°53.874 -999 3.055601 32.965114 2.168421
2009-02-03 08:39:12 51°21.901 2°53.879 -999 3.055601 32.965114 2.168421
2009-02-03 08:39:17 51°21.918 2°53.884 -999 3.056119 32.971289 2.098773
2009-02-03 08:39:22 51°21.936 2°53.887 -999 3.056533 32.974231 2.098773
2009-02-03 08:39:27 51°21.953 2°53.89 -999 3.056533 32.973232 2.098773
2009-02-03 08:39:32 51°21.97 2°53.89 -999 3.05705 32.978407 2.029124
2009-02-03 08:39:37 51°21.988 2°53.891 -999 3.057257 32.979878 2.063949
2009-02-03 08:39:42 51°22.005 2°53.89 -999 3.057257 32.979878 2.063949
2009-02-03 08:39:47 51°22.023 2°53.889 -999 3.057671 32.983819 2.098773
2009-02-03 08:39:52 51°22.04 2°53.888 -999 3.057775 32.984054 2.098773
2009-02-03 08:39:57 51°22.057 2°53.886 -999 3.057982 32.985525 2.063949
2009-02-03 08:40:02 51°22.075 2°53.884 -999 3.058396 32.989465 2.133597
2009-02-03 08:40:07 51°22.092 2°53.883 -999 3.058706 32.991171 2.133597
2009-02-03 08:40:12 51°22.11 2°53.881 -999 3.058706 32.991171 2.133597
2009-02-03 08:40:17 51°22.127 2°53.879 -999 3.058913 32.991641 2.063949
2009-02-03 08:40:22 51°22.145 2°53.877 -999 3.05912 32.994111 2.063949
2009-02-03 08:40:27 51°22.162 2°53.875 -999 3.059638 32.998286 2.098773
2009-02-03 08:40:32 51°22.18 2°53.873 -999 3.059845 32.997757 2.063949
2009-02-03 08:40:37 51°22.197 2°53.871 -999 3.060569 33.003401 2.098773
2009-02-03 08:40:42 51°22.214 2°53.868 -999 3.060569 33.003401 2.098773
2009-02-03 08:40:47 51°22.232 2°53.867 -999 3.060776 33.00487 2.133597
2009-02-03 08:40:52 51°22.249 2°53.865 -999 3.06119 33.008809 2.098773
2009-02-03 08:40:57 51°22.267 2°53.864 -999 3.061397 33.010278 2.098773
2009-02-03 08:41:02 51°22.284 2°53.862 -999 3.061397 33.00728 2.098773
2009-02-03 08:41:06 51°22.298 2°53.861 -999 3.06119 33.00581 2.098773
2009-02-03 08:41:12 51°22.319 2°53.859 -999 3.06119 33.00581 2.098773
2009-02-03 08:41:18 51°22.34 2°53.857 -999 3.06088 33.004106 2.098773
2009-02-03 08:41:22 51°22.353 2°53.856 -999 3.060569 33.001402 2.098773
2009-02-03 08:41:27 51°22.371 2°53.856 -999 3.060052 32.997228 2.063949
2009-02-03 08:41:32 51°22.389 2°53.855 -999 3.059534 32.993054 2.063949
2009-02-03 08:41:37 51°22.406 2°53.854 -999 3.05912 32.989114 2.098773
2009-02-03 08:41:42 51°22.424 2°53.854 -999 3.05912 32.989114 2.098773
2009-02-03 08:41:47 51°22.441 2°53.854 -999 3.058706 32.983177 2.098773
2009-02-03 08:41:52 51°22.459 2°53.853 -999 3.058706 32.982178 2.063949
2009-02-03 08:41:57 51°22.476 2°53.853 -999 3.058499 32.97871 2.098773
2009-02-03 08:42:02 51°22.494 2°53.852 -999 3.058396 32.976477 2.063949
2009-02-03 08:42:07 51°22.512 2°53.851 -999 3.058396 32.977476 2.098773
2009-02-03 08:42:11 51°22.526 2°53.851 -999 3.058396 32.977476 2.098773
2009-02-03 08:42:17 51°22.547 2°53.851 -999 3.058189 32.976006 2.063949
2009-02-03 08:42:22 51°22.565 2°53.85 -999 3.058085 32.973773 2.029124
2009-02-03 08:42:27 51°22.583 2°53.85 -999 3.058189 32.974009 2.029124
2009-02-03 08:42:32 51°22.6 2°53.849 -999 3.058085 32.970777 2.029124
2009-02-03 08:42:37 51°22.618 2°53.849 -999 3.058706 32.977185 2.063949
2009-02-03 08:42:42 51°22.636 2°53.848 -999 3.058706 32.977185 2.063949
2009-02-03 08:42:47 51°22.654 2°53.848 -999 3.058706 32.977185 2.063949
2009-02-03 08:42:52 51°22.672 2°53.849 -999 3.058913 32.978655 2.098773
2009-02-03 08:42:57 51°22.69 2°53.849 -999 3.05912 32.980125 2.029124
2009-02-03 08:43:02 51°22.708 2°53.85 -999 3.059431 32.982829 2.063949
2009-02-03 08:43:07 51°22.725 2°53.851 -999 3.059534 32.983064 2.063949
2009-02-03 08:43:12 51°22.743 2°53.853 -999 3.059534 32.983064 2.063949
2009-02-03 08:43:17 51°22.761 2°53.855 -999 3.059845 32.98477 2.098773
2009-02-03 08:43:22 51°22.779 2°53.857 -999 3.059948 32.984007 2.029124
2009-02-03 08:43:27 51°22.797 2°53.859 -999 3.060466 32.989179 1.9943
2009-02-03 08:43:31 51°22.812 2°53.861 -999 3.060052 32.984242 2.063949
2009-02-03 08:43:37 51°22.833 2°53.864 -999 3.06119 32.997817 2.029124
2009-02-03 08:43:42 51°22.851 2°53.866 -999 3.06119 32.997817 2.029124
2009-02-03 08:43:47 51°22.869 2°53.868 -999 3.060776 32.991882 2.029124
2009-02-03 08:43:52 51°22.887 2°53.87 -999 3.061294 32.998052 2.063949
2009-02-03 08:43:57 51°22.905 2°53.873 -999 3.061397 32.998288 2.063949
2009-02-03 08:44:02 51°22.923 2°53.875 -999 3.061915 33.001461 2.098773
2009-02-03 08:44:07 51°22.941 2°53.879 -999 3.062536 33.005868 2.133597
2009-02-03 08:44:12 51°22.958 2°53.881 -999 3.062536 33.005868 2.133597
2009-02-03 08:44:18 51°22.98 2°53.884 -999 3.063053 33.01004 2.098773
2009-02-03 08:44:22 51°22.994 2°53.885 -999 3.064192 33.019616 2.168421
2009-02-03 08:44:27 51°23.012 2°53.888 -999 3.064709 33.018791 2.203245
2009-02-03 08:44:32 51°23.03 2°53.89 -999 3.066365 33.032533 2.203245
2009-02-03 08:44:38 51°23.051 2°53.894 -999 3.066986 33.033939 2.307717
2009-02-03 08:44:42 51°23.065 2°53.894 -999 3.066986 33.033939 2.307717
2009-02-03 08:44:47 51°23.083 2°53.897 -999 3.067918 33.040043 2.272893
2009-02-03 08:44:52 51°23.101 2°53.898 -999 3.069056 33.047613 2.238069
2009-02-03 08:44:58 51°23.123 2°53.901 -999 3.069884 33.051482 2.272893
2009-02-03 08:45:02 51°23.137 2°53.903 -999 3.071127 33.060281 2.307717
2009-02-03 08:45:07 51°23.154 2°53.905 -999 3.072472 33.07031 2.307717
2009-02-03 08:45:12 51°23.172 2°53.907 -999 3.072472 33.07031 2.307717
2009-02-03 08:45:17 51°23.19 2°53.909 -999 3.073921 33.081569 2.307717
2009-02-03 08:45:22 51°23.208 2°53.912 -999 3.074335 33.080503 2.342541
2009-02-03 08:45:27 51°23.226 2°53.913 -999 3.075577 33.091292 2.377365
2009-02-03 08:45:32 51°23.244 2°53.915 -999 3.076612 33.098616 2.342541
2009-02-03 08:45:38 51°23.265 2°53.918 -999 3.078062 33.110866 2.342541
2009-02-03 08:45:42 51°23.28 2°53.92 -999 3.078062 33.110866 2.342541
2009-02-03 08:45:47 51°23.298 2°53.922 -999 3.077854 33.104405 2.342541
2009-02-03 08:45:52 51°23.315 2°53.924 -999 3.078579 33.10903 2.272893
2009-02-03 08:45:58 51°23.337 2°53.927 -999 3.079821 33.119811 2.342541
2009-02-03 08:46:02 51°23.351 2°53.928 -999 3.080856 33.129128 2.307717
2009-02-03 08:46:06 51°23.365 2°53.93 -999 3.081891 33.137444 2.342541
2009-02-03 08:46:12 51°23.387 2°53.932 -999 3.081891 33.137444 2.342541
2009-02-03 08:46:18 51°23.408 2°53.934 -999 3.082409 33.139602 2.272893
2009-02-03 08:46:22 51°23.422 2°53.934 -999 3.083444 33.147916 2.342541
2009-02-03 08:46:27 51°23.44 2°53.937 -999 3.083547 33.145148 2.307717
2009-02-03 08:46:32 51°23.457 2°53.938 -999 3.084997 33.158384 2.342541
2009-02-03 08:46:37 51°23.475 2°53.941 -999 3.085514 33.160539 2.307717
2009-02-03 08:46:42 51°23.493 2°53.942 -999 3.085514 33.160539 2.307717
2009-02-03 08:46:47 51°23.51 2°53.945 -999 3.086239 33.165156 2.342541
2009-02-03 08:46:52 51°23.528 2°53.946 -999 3.087067 33.171002 2.342541
2009-02-03 08:46:57 51°23.546 2°53.949 -999 3.087791 33.176617 2.342541
2009-02-03 08:47:02 51°23.564 2°53.951 -999 3.088826 33.184923 2.377365
2009-02-03 08:47:07 51°23.581 2°53.954 -999 3.089033 33.182384 2.377365
2009-02-03 08:47:12 51°23.599 2°53.957 -999 3.089033 33.182384 2.377365
2009-02-03 08:47:17 51°23.617 2°53.96 -999 3.089654 33.186767 2.412189
2009-02-03 08:47:22 51°23.634 2°53.963 -999 3.089861 33.188228 2.447013
2009-02-03 08:47:26 51°23.648 2°53.966 -999 3.090586 33.19384 2.447013
2009-02-03 08:47:32 51°23.67 2°53.969 -999 3.091207 33.199221 2.447013
2009-02-03 08:47:37 51°23.687 2°53.972 -999 3.091311 33.198451 2.412189
2009-02-03 08:47:42 51°23.705 2°53.975 -999 3.091311 33.198451 2.412189
2009-02-03 08:47:47 51°23.723 2°53.979 -999 3.091932 33.203831 2.377365
2009-02-03 08:47:52 51°23.74 2°53.981 -999 3.092242 33.205521 2.412189
2009-02-03 08:47:57 51°23.758 2°53.985 -999 3.09276 33.209671 2.447013
2009-02-03 08:48:02 51°23.776 2°53.988 -999 3.093174 33.21159 2.481837
2009-02-03 08:48:07 51°23.793 2°53.992 -999 3.093484 33.21328 2.447013
2009-02-03 08:48:12 51°23.811 2°53.996 -999 3.093484 33.21328 2.447013
2009-02-03 08:48:17 51°23.828 2°53.999 -999 3.093898 33.216199 2.481837
2009-02-03 08:48:22 51°23.846 2°54.003 -999 3.094105 33.216658 2.377365
2009-02-03 08:48:27 51°23.864 2°54.006 -999 3.094416 33.220347 2.412189
2009-02-03 08:48:31 51°23.878 2°54.008 -999 3.094726 33.223036 2.377365
2009-02-03 08:48:37 51°23.899 2°54.011 -999 3.095658 33.234104 2.377365
2009-02-03 08:48:42 51°23.917 2°54.013 -999 3.095658 33.234104 2.377365
2009-02-03 08:48:47 51°23.934 2°54.017 -999 3.095244 33.228185 2.412189
2009-02-03 08:48:52 51°23.952 2°54.02 -999 3.096072 33.237022 2.447013
2009-02-03 08:48:57 51°23.97 2°54.023 -999 3.095865 33.234563 2.377365
2009-02-03 08:49:02 51°23.987 2°54.026 -999 3.096383 33.23871 2.342541
2009-02-03 08:49:07 51°24.005 2°54.029 -999 3.097004 33.245087 2.342541
2009-02-03 08:49:12 51°24.023 2°54.031 -999 3.097004 33.245087 2.342541
2009-02-03 08:49:17 51°24.04 2°54.034 -999 3.097314 33.246775 2.342541
2009-02-03 08:49:22 51°24.058 2°54.035 -999 3.097935 33.252151 2.377365
2009-02-03 08:49:27 51°24.075 2°54.038 -999 3.098246 33.252837 2.307717
2009-02-03 08:49:32 51°24.093 2°54.039 -999 3.099488 33.264588 2.342541
2009-02-03 08:49:37 51°24.11 2°54.042 -999 3.099488 33.262587 2.342541
2009-02-03 08:49:42 51°24.128 2°54.044 -999 3.099488 33.262587 2.342541
2009-02-03 08:49:47 51°24.145 2°54.046 -999 3.100316 33.27042 2.342541
2009-02-03 08:49:52 51°24.163 2°54.048 -999 3.10073 33.272334 2.342541
2009-02-03 08:49:57 51°24.181 2°54.05 -999 3.101248 33.275477 2.377365
2009-02-03 08:50:02 51°24.198 2°54.053 -999 3.101351 33.272703 2.342541
2009-02-03 08:50:07 51°24.216 2°54.057 -999 3.102386 33.282991 2.307717
2009-02-03 08:50:12 51°24.233 2°54.059 -999 3.102386 33.282991 2.307717
2009-02-03 08:50:17 51°24.251 2°54.062 -999 3.1028 33.286906 2.342541
2009-02-03 08:50:22 51°24.268 2°54.065 -999 3.103836 33.297194 2.412189
2009-02-03 08:50:27 51°24.286 2°54.069 -999 3.103939 33.296421 2.307717
2009-02-03 08:50:32 51°24.303 2°54.072 -999 3.103939 33.293417 2.342541
2009-02-03 08:50:37 51°24.321 2°54.076 -999 3.105078 33.305933 2.307717
2009-02-03 08:50:42 51°24.338 2°54.079 -999 3.105078 33.305933 2.307717
2009-02-03 08:50:46 51°24.352 2°54.082 -999 3.104767 33.299243 2.342541
2009-02-03 08:50:52 51°24.374 2°54.086 -999 3.104767 33.299243 2.307717
2009-02-03 08:50:57 51°24.391 2°54.088 -999 3.105595 33.30707 2.272893
2009-02-03 08:51:02 51°24.408 2°54.093 -999 3.105906 33.309755 2.342541
2009-02-03 08:51:07 51°24.426 2°54.095 -999 3.10632 33.313668 2.307717
2009-02-03 08:51:12 51°24.444 2°54.098 -999 3.10632 33.313668 2.307717
2009-02-03 08:51:17 51°24.461 2°54.102 -999 3.106009 33.310984 2.342541
2009-02-03 08:51:22 51°24.479 2°54.105 -999 3.106216 33.313441 2.307717
2009-02-03 08:51:27 51°24.496 2°54.108 -999 3.106423 33.315899 2.307717
2009-02-03 08:51:32 51°24.514 2°54.111 -999 3.10632 33.312667 2.342541
2009-02-03 08:51:37 51°24.532 2°54.114 -999 3.10632 33.312667 2.342541
2009-02-03 08:51:42 51°24.549 2°54.117 -999 3.10632 33.312667 2.342541
2009-02-03 08:51:47 51°24.567 2°54.119 -999 3.106423 33.314897 2.342541
2009-02-03 08:51:51 51°24.581 2°54.122 -999 3.106113 33.312212 2.307717
2009-02-03 08:51:57 51°24.602 2°54.125 -999 3.106113 33.312212 2.307717
2009-02-03 08:52:02 51°24.62 2°54.128 -999 3.106838 33.320814 2.307717
2009-02-03 08:52:07 51°24.637 2°54.129 -999 3.10632 33.31467 2.342541
2009-02-03 08:52:12 51°24.655 2°54.132 -999 3.10632 33.31467 2.342541
2009-02-03 08:52:17 51°24.673 2°54.133 -999 3.106423 33.314897 2.342541
2009-02-03 08:52:22 51°24.69 2°54.135 -999 3.106527 33.316126 2.412189
2009-02-03 08:52:27 51°24.708 2°54.137 -999 3.106631 33.317354 2.377365
2009-02-03 08:52:32 51°24.725 2°54.139 -999 3.106631 33.317354 2.342541
2009-02-03 08:52:37 51°24.743 2°54.141 -999 3.106838 33.319812 2.272893
2009-02-03 08:52:42 51°24.76 2°54.143 -999 3.106838 33.319812 2.272893
2009-02-03 08:52:47 51°24.778 2°54.144 -999 3.106527 33.317127 2.307717
2009-02-03 08:52:52 51°24.795 2°54.146 -999 3.106734 33.319585 2.307717
2009-02-03 08:52:58 51°24.817 2°54.148 -999 3.106838 33.320814 2.342541
2009-02-03 08:53:02 51°24.831 2°54.15 -999 3.107148 33.3245 2.342541
2009-02-03 08:53:07 51°24.848 2°54.152 -999 3.107045 33.323271 2.377365
2009-02-03 08:53:12 51°24.866 2°54.154 -999 3.107045 33.323271 2.377365
2009-02-03 08:53:18 51°24.887 2°54.156 -999 3.107355 33.327959 2.377365
2009-02-03 08:53:22 51°24.901 2°54.159 -999 3.106527 33.318129 2.342541
2009-02-03 08:53:27 51°24.919 2°54.161 -999 3.106631 33.318356 2.307717
2009-02-03 08:53:32 51°24.937 2°54.163 -999 3.106941 33.321041 2.307717
2009-02-03 08:53:38 51°24.958 2°54.166 -999 3.106734 33.318583 2.342541
2009-02-03 08:53:42 51°24.972 2°54.169 -999 3.106734 33.318583 2.342541
2009-02-03 08:53:47 51°24.99 2°54.172 -999 3.106631 33.317354 2.342541
2009-02-03 08:53:52 51°25.007 2°54.175 -999 3.106423 33.313896 2.307717
2009-02-03 08:53:58 51°25.029 2°54.178 -999 3.106941 33.320039 2.342541
2009-02-03 08:54:02 51°25.043 2°54.18 -999 3.106631 33.316353 2.307717
2009-02-03 08:54:07 51°25.061 2°54.183 -999 3.107459 33.326182 2.307717
2009-02-03 08:54:12 51°25.078 2°54.186 -999 3.107459 33.326182 2.307717
2009-02-03 08:54:18 51°25.1 2°54.191 -999 3.106423 33.313896 2.342541
2009-02-03 08:54:22 51°25.114 2°54.193 -999 3.106734 33.318583 2.377365
2009-02-03 08:54:26 51°25.128 2°54.196 -999 3.106941 33.323044 2.307717
2009-02-03 08:54:32 51°25.149 2°54.2 -999 3.106423 33.3169 2.238069
2009-02-03 08:54:38 51°25.171 2°54.204 -999 3.106113 33.314215 2.307717
2009-02-03 08:54:42 51°25.185 2°54.206 -999 3.106113 33.314215 2.307717
2009-02-03 08:54:47 51°25.203 2°54.209 -999 3.106424 33.318903 2.307717
2009-02-03 08:54:52 51°25.221 2°54.211 -999 3.106424 33.320907 2.272893
2009-02-03 08:54:57 51°25.238 2°54.214 -999 3.106217 33.320453 2.203245
2009-02-03 08:55:02 51°25.256 2°54.216 -999 3.106217 33.320453 2.272893
2009-02-03 08:55:07 51°25.274 2°54.22 -999 3.106424 33.322911 2.203245
2009-02-03 08:55:12 51°25.291 2°54.222 -999 3.106424 33.322911 2.203245
2009-02-03 08:55:17 51°25.309 2°54.225 -999 3.106113 33.31722 2.238069
2009-02-03 08:55:22 51°25.326 2°54.228 -999 3.107562 33.335428 2.238069
2009-02-03 08:55:27 51°25.344 2°54.23 -999 3.107976 33.338339 2.238069
2009-02-03 08:55:32 51°25.362 2°54.233 -999 3.108494 33.341477 2.238069
2009-02-03 08:55:37 51°25.379 2°54.236 -999 3.108908 33.344387 2.168421
2009-02-03 08:55:42 51°25.397 2°54.24 -999 3.108908 33.344387 2.168421
2009-02-03 08:55:46 51°25.411 2°54.242 -999 3.109633 33.350984 2.168421
2009-02-03 08:55:52 51°25.431 2°54.246 -999 3.110357 33.355576 2.238069
2009-02-03 08:55:57 51°25.449 2°54.25 -999 3.110254 33.35134 2.238069
2009-02-03 08:56:02 51°25.466 2°54.253 -999 3.111703 33.363527 2.203245
2009-02-03 08:56:07 51°25.484 2°54.257 -999 3.112841 33.372028 2.238069
2009-02-03 08:56:12 51°25.501 2°54.26 -999 3.112841 33.372028 2.238069
2009-02-03 08:56:17 51°25.519 2°54.263 -999 3.113877 33.3803 2.272893
2009-02-03 08:56:22 51°25.536 2°54.267 -999 3.114912 33.388572 2.272893
2009-02-03 08:56:27 51°25.553 2°54.27 -999 3.114912 33.385564 2.272893
2009-02-03 08:56:32 51°25.571 2°54.273 -999 3.115843 33.396617 2.307717
2009-02-03 08:56:37 51°25.588 2°54.276 -999 3.116051 33.39807 2.307717
2009-02-03 08:56:42 51°25.606 2°54.279 -999 3.116051 33.39807 2.307717
2009-02-03 08:56:46 51°25.62 2°54.28 -999 3.11605 33.397067 2.342541
2009-02-03 08:56:52 51°25.641 2°54.284 -999 3.116361 33.400751 2.342541
2009-02-03 08:56:57 51°25.658 2°54.287 -999 3.116258 33.400526 2.377365
2009-02-03 08:57:02 51°25.676 2°54.29 -999 3.116154 33.400301 2.272893
2009-02-03 08:57:07 51°25.693 2°54.293 -999 3.115947 33.398848 2.307717
2009-02-03 08:57:12 51°25.711 2°54.295 -999 3.115947 33.398848 2.307717
2009-02-03 08:57:17 51°25.728 2°54.298 -999 3.115636 33.397169 2.272893
2009-02-03 08:57:22 51°25.746 2°54.3 -999 3.115119 33.393034 2.238069
2009-02-03 08:57:27 51°25.764 2°54.302 -999 3.114705 33.389124 2.272893
2009-02-03 08:57:32 51°25.782 2°54.304 -999 3.114808 33.391355 2.203245
2009-02-03 08:57:37 51°25.799 2°54.307 -999 3.114084 33.38376 2.203245
2009-02-03 08:57:42 51°25.817 2°54.309 -999 3.114084 33.38376 2.203245
2009-02-03 08:57:47 51°25.835 2°54.312 -999 3.114187 33.386994 2.168421
2009-02-03 08:57:51 51°25.849 2°54.315 -999 3.113877 33.385315 2.168421
2009-02-03 08:57:57 51°25.87 2°54.317 -999 3.113877 33.386318 2.168421
2009-02-03 08:58:02 51°25.888 2°54.321 -999 3.11367 33.383861 2.168421
2009-02-03 08:58:07 51°25.906 2°54.323 -999 3.113256 33.37995 2.133597
2009-02-03 08:58:12 51°25.923 2°54.327 -999 3.113256 33.37995 2.133597
2009-02-03 08:58:17 51°25.941 2°54.33 -999 3.113359 33.383184 2.098773
2009-02-03 08:58:22 51°25.959 2°54.333 -999 3.113256 33.380953 2.133597
2009-02-03 08:58:27 51°25.977 2°54.337 -999 3.113152 33.379724 2.133597
2009-02-03 08:58:32 51°25.994 2°54.34 -999 3.113256 33.380953 2.063949
2009-02-03 08:58:37 51°26.012 2°54.344 -999 3.112945 33.379273 2.098773
2009-02-03 08:58:42 51°26.029 2°54.346 -999 3.112945 33.379273 2.098773
2009-02-03 08:58:47 51°26.047 2°54.349 -999 3.113152 33.38173 2.133597
2009-02-03 08:58:52 51°26.064 2°54.352 -999 3.113152 33.38173 2.029124
2009-02-03 08:58:57 51°26.082 2°54.355 -999 3.113566 33.385641 2.063949
2009-02-03 08:59:02 51°26.1 2°54.358 -999 3.113463 33.384413 2.029124
2009-02-03 08:59:06 51°26.114 2°54.36 -999 3.113463 33.385416 2.063949
2009-02-03 08:59:12 51°26.135 2°54.364 -999 3.113463 33.385416 2.063949
2009-02-03 08:59:17 51°26.153 2°54.367 -999 3.113877 33.391334 2.063949
2009-02-03 08:59:22 51°26.17 2°54.37 -999 3.113566 33.387648 2.133597
2009-02-03 08:59:27 51°26.188 2°54.373 -999 3.113877 33.390331 2.063949
2009-02-03 08:59:32 51°26.205 2°54.376 -999 3.114498 33.396699 2.063949
2009-02-03 08:59:37 51°26.223 2°54.379 -999 3.114394 33.394467 2.063949
2009-02-03 08:59:42 51°26.241 2°54.382 -999 3.114394 33.394467 2.063949
2009-02-03 08:59:47 51°26.258 2°54.385 -999 3.115119 33.40106 2.063949
2009-02-03 08:59:52 51°26.276 2°54.388 -999 3.115326 33.401511 2.063949
2009-02-03 08:59:57 51°26.293 2°54.391 -999 3.116051 33.408103 2.098773
2009-02-03 09:00:02 51°26.311 2°54.393 -999 3.116361 33.410785 2.098773
2009-02-03 09:00:07 51°26.328 2°54.396 -999 3.116775 33.413691 2.098773
2009-02-03 09:00:11 51°26.342 2°54.398 -999 3.116775 33.413691 2.098773
2009-02-03 09:00:17 51°26.363 2°54.402 -999 3.116775 33.410681 2.063949
2009-02-03 09:00:22 51°26.381 2°54.403 -999 3.117707 33.420732 2.029124
2009-02-03 09:00:27 51°26.399 2°54.406 -999 3.117707 33.419728 2.063949
2009-02-03 09:00:32 51°26.416 2°54.408 -999 3.118017 33.421406 2.063949
2009-02-03 09:00:37 51°26.434 2°54.411 -999 3.118224 33.420851 2.098773
2009-02-03 09:00:42 51°26.451 2°54.413 -999 3.118224 33.420851 2.098773
2009-02-03 09:00:47 51°26.469 2°54.415 -999 3.118638 33.423757 2.098773
2009-02-03 09:00:52 51°26.486 2°54.418 -999 3.119053 33.426662 2.133597
2009-02-03 09:00:57 51°26.504 2°54.42 -999 3.11957 33.429791 2.133597
2009-02-03 09:01:02 51°26.521 2°54.423 -999 3.120502 33.438835 2.203245
2009-02-03 09:01:07 51°26.539 2°54.425 -999 3.121123 33.443191 2.238069
2009-02-03 09:01:12 51°26.556 2°54.428 -999 3.121123 33.443191 2.238069
2009-02-03 09:01:17 51°26.574 2°54.43 -999 3.121951 33.450002 2.238069
2009-02-03 09:01:22 51°26.591 2°54.433 -999 3.121848 33.44777 2.203245
2009-02-03 09:01:27 51°26.609 2°54.435 -999 3.122158 33.449446 2.238069
2009-02-03 09:01:32 51°26.626 2°54.437 -999 3.122262 33.448666 2.238069
2009-02-03 09:01:37 51°26.644 2°54.44 -999 3.12309 33.457483 2.272893
2009-02-03 09:01:42 51°26.661 2°54.442 -999 3.12309 33.457483 2.272893
2009-02-03 09:01:47 51°26.679 2°54.444 -999 3.123193 33.457707 2.238069
2009-02-03 09:01:52 51°26.697 2°54.447 -999 3.123607 33.459606 2.307717
2009-02-03 09:01:57 51°26.714 2°54.448 -999 3.123711 33.459829 2.272893
2009-02-03 09:02:02 51°26.732 2°54.452 -999 3.123814 33.461057 2.307717
2009-02-03 09:02:07 51°26.75 2°54.454 -999 3.123918 33.462284 2.307717
2009-02-03 09:02:12 51°26.768 2°54.458 -999 3.123918 33.462284 2.307717
2009-02-03 09:02:17 51°26.785 2°54.46 -999 3.124332 33.467194 2.272893
2009-02-03 09:02:22 51°26.803 2°54.464 -999 3.123918 33.462284 2.272893
2009-02-03 09:02:26 51°26.817 2°54.465 -999 3.124021 33.462508 2.307717
2009-02-03 09:02:32 51°26.839 2°54.468 -999 3.124228 33.463959 2.307717
2009-02-03 09:02:37 51°26.856 2°54.471 -999 3.125264 33.47523 2.342541
2009-02-03 09:02:42 51°26.874 2°54.473 -999 3.125264 33.47523 2.342541
2009-02-03 09:02:47 51°26.892 2°54.476 -999 3.12516 33.474002 2.342541
2009-02-03 09:02:52 51°26.91 2°54.479 -999 3.125057 33.472775 2.307717
2009-02-03 09:02:57 51°26.928 2°54.48 -999 3.125057 33.473779 2.272893
2009-02-03 09:03:02 51°26.946 2°54.483 -999 3.124953 33.473556 2.307717
2009-02-03 09:03:07 51°26.964 2°54.485 -999 3.125057 33.473779 2.307717
2009-02-03 09:03:12 51°26.982 2°54.488 -999 3.125057 33.473779 2.307717
2009-02-03 09:03:17 51°27 2°54.489 -999 3.124953 33.472551 2.307717
2009-02-03 09:03:22 51°27.017 2°54.492 -999 3.124953 33.471547 2.272893
2009-02-03 09:03:27 51°27.035 2°54.494 -999 3.125264 33.474225 2.307717
2009-02-03 09:03:31 51°27.049 2°54.497 -999 3.12516 33.474002 2.307717
2009-02-03 09:03:37 51°27.071 2°54.499 -999 3.12516 33.474002 2.307717
2009-02-03 09:03:42 51°27.089 2°54.502 -999 3.12516 33.474002 2.307717
2009-02-03 09:03:47 51°27.106 2°54.505 -999 3.125367 33.476457 2.272893
2009-02-03 09:03:52 51°27.124 2°54.508 -999 3.125678 33.479135 2.307717
2009-02-03 09:03:57 51°27.142 2°54.511 -999 3.125781 33.478354 2.307717
2009-02-03 09:04:02 51°27.16 2°54.514 -999 3.126092 33.481032 2.307717
2009-02-03 09:04:07 51°27.178 2°54.517 -999 3.126299 33.482483 2.307717
2009-02-03 09:04:12 51°27.196 2°54.52 -999 3.126299 33.482483 2.307717
2009-02-03 09:04:17 51°27.214 2°54.523 -999 3.126713 33.485383 2.272893
2009-02-03 09:04:22 51°27.232 2°54.526 -999 3.127023 33.487056 2.238069
2009-02-03 09:04:27 51°27.249 2°54.529 -999 3.127334 33.489734 2.307717
2009-02-03 09:04:32 51°27.267 2°54.531 -999 3.127748 33.493639 2.238069
2009-02-03 09:04:37 51°27.285 2°54.533 -999 3.128162 33.495534 2.272893
2009-02-03 09:04:42 51°27.303 2°54.536 -999 3.128162 33.495534 2.272893
2009-02-03 09:04:47 51°27.321 2°54.538 -999 3.128576 33.497429 2.307717
2009-02-03 09:04:52 51°27.339 2°54.54 -999 3.129301 33.502001 2.272893
2009-02-03 09:04:57 51°27.357 2°54.542 -999 3.129715 33.5049 2.307717
2009-02-03 09:05:02 51°27.375 2°54.544 -999 3.130232 33.507016 2.342541
2009-02-03 09:05:07 51°27.393 2°54.546 -999 3.13075 33.510137 2.447013
2009-02-03 09:05:12 51°27.411 2°54.548 -999 3.13075 33.510137 2.447013
2009-02-03 09:05:17 51°27.43 2°54.55 -999 3.131371 33.514484 2.307717
2009-02-03 09:05:22 51°27.448 2°54.552 -999 3.131785 33.516377 2.342541
2009-02-03 09:05:27 51°27.466 2°54.555 -999 3.132199 33.519275 2.412189
2009-02-03 09:05:32 51°27.484 2°54.557 -999 3.13251 33.520945 2.342541
2009-02-03 09:05:37 51°27.502 2°54.559 -999 3.132924 33.524847 2.342541
2009-02-03 09:05:42 51°27.52 2°54.561 -999 3.132924 33.524847 2.342541
2009-02-03 09:05:46 51°27.535 2°54.563 -999 3.133338 33.526739 2.377365
2009-02-03 09:05:52 51°27.556 2°54.564 -999 3.133856 33.530862 2.377365
2009-02-03 09:05:57 51°27.574 2°54.567 -999 3.133959 33.529075 2.377365
2009-02-03 09:06:02 51°27.592 2°54.568 -999 3.134373 33.531971 2.412189
2009-02-03 09:06:07 51°27.61 2°54.571 -999 3.134787 33.534867 2.412189
2009-02-03 09:06:12 51°27.629 2°54.573 -999 3.134787 33.534867 2.412189
2009-02-03 09:06:17 51°27.647 2°54.575 -999 3.135098 33.536536 2.377365
2009-02-03 09:06:22 51°27.665 2°54.577 -999 3.135408 33.53921 2.377365
2009-02-03 09:06:27 51°27.683 2°54.579 -999 3.135823 33.544115 2.377365
2009-02-03 09:06:32 51°27.701 2°54.581 -999 3.136237 33.548014 2.377365
2009-02-03 09:06:37 51°27.719 2°54.582 -999 3.136858 33.552357 2.377365
2009-02-03 09:06:42 51°27.737 2°54.583 -999 3.136858 33.552357 2.377365
2009-02-03 09:06:47 51°27.755 2°54.585 -999 3.137686 33.558145 2.412189
2009-02-03 09:06:51 51°27.769 2°54.585 -999 3.138307 33.562486 2.377365
2009-02-03 09:06:57 51°27.791 2°54.587 -999 3.139239 33.568494 2.412189
2009-02-03 09:07:02 51°27.809 2°54.588 -999 3.140067 33.57428 2.447013
2009-02-03 09:07:07 51°27.827 2°54.589 -999 3.140999 33.580286 2.481837
2009-02-03 09:07:12 51°27.845 2°54.589 -999 3.140999 33.580286 2.481837
2009-02-03 09:07:17 51°27.863 2°54.59 -999 3.14193 33.58629 2.516661
2009-02-03 09:07:22 51°27.881 2°54.59 -999 3.142965 33.593518 2.481837
2009-02-03 09:07:27 51°27.899 2°54.591 -999 3.144001 33.60175 2.481837
2009-02-03 09:07:32 51°27.917 2°54.593 -999 3.145139 33.610201 2.447013
2009-02-03 09:07:37 51°27.935 2°54.595 -999 3.145864 33.61375 2.447013
2009-02-03 09:07:42 51°27.953 2°54.598 -999 3.145864 33.61375 2.447013
2009-02-03 09:07:47 51°27.971 2°54.601 -999 3.146899 33.619967 2.447013
2009-02-03 09:07:52 51°27.988 2°54.604 -999 3.147727 33.624739 2.481837
2009-02-03 09:07:57 51°28.006 2°54.608 -999 3.148763 33.630954 2.481837
2009-02-03 09:08:02 51°28.023 2°54.612 -999 3.149694 33.636948 2.447013
2009-02-03 09:08:07 51°28.041 2°54.615 -999 3.150833 33.646394 2.447013
2009-02-03 09:08:12 51°28.058 2°54.62 -999 3.150833 33.646394 2.447013
2009-02-03 09:08:17 51°28.076 2°54.623 -999 3.151661 33.650156 2.481837
2009-02-03 09:08:22 51°28.093 2°54.629 -999 3.152489 33.653917 2.447013
2009-02-03 09:08:27 51°28.11 2°54.632 -999 3.153732 33.665588 2.447013
2009-02-03 09:08:32 51°28.128 2°54.637 -999 3.154663 33.672581 2.516661
2009-02-03 09:08:37 51°28.145 2°54.641 -999 3.155699 33.679791 2.447013
2009-02-03 09:08:42 51°28.162 2°54.646 -999 3.155699 33.679791 2.447013
2009-02-03 09:08:47 51°28.18 2°54.65 -999 3.156941 33.68844 2.481837
2009-02-03 09:08:52 51°28.197 2°54.655 -999 3.158183 33.697088 2.516661
2009-02-03 09:08:57 51°28.214 2°54.659 -999 3.159426 33.704728 2.551485
2009-02-03 09:09:02 51°28.232 2°54.664 -999 3.160564 33.710137 2.586309
2009-02-03 09:09:06 51°28.246 2°54.667 -999 3.161807 33.717772 2.551485
2009-02-03 09:09:12 51°28.267 2°54.672 -999 3.161807 33.717772 2.551485
2009-02-03 09:09:17 51°28.284 2°54.677 -999 3.162945 33.725189 2.586309
2009-02-03 09:09:22 51°28.302 2°54.681 -999 3.163774 33.729941 2.551485
2009-02-03 09:09:27 51°28.32 2°54.684 -999 3.164809 33.737138 2.621133
2009-02-03 09:09:32 51°28.337 2°54.689 -999 3.165534 33.742677 2.586309
2009-02-03 09:09:37 51°28.355 2°54.692 -999 3.166051 33.745771 2.551485
2009-02-03 09:09:42 51°28.372 2°54.696 -999 3.166051 33.745771 2.551485
2009-02-03 09:09:47 51°28.39 2°54.699 -999 3.166569 33.748865 2.551485
2009-02-03 09:09:52 51°28.408 2°54.704 -999 3.166983 33.750736 2.621133
2009-02-03 09:09:57 51°28.425 2°54.707 -999 3.167294 33.752391 2.586309
2009-02-03 09:10:02 51°28.443 2°54.711 -999 3.167708 33.756274 2.621133
2009-02-03 09:10:07 51°28.461 2°54.715 -999 3.167708 33.755268 2.655957
2009-02-03 09:10:11 51°28.475 2°54.719 -999 3.167708 33.755268 2.655957
2009-02-03 09:10:17 51°28.497 2°54.723 -999 3.168225 33.760372 2.621133
2009-02-03 09:10:22 51°28.514 2°54.728 -999 3.168329 33.760588 2.586309
2009-02-03 09:10:27 51°28.532 2°54.731 -999 3.168536 33.763032 2.621133
2009-02-03 09:10:32 51°28.55 2°54.736 -999 3.168639 33.763248 2.621133
2009-02-03 09:10:37 51°28.568 2°54.74 -999 3.168743 33.762459 2.586309
2009-02-03 09:10:42 51°28.585 2°54.746 -999 3.168743 33.762459 2.586309
2009-02-03 09:10:47 51°28.603 2°54.749 -999 3.169053 33.765118 2.586309
2009-02-03 09:10:52 51°28.621 2°54.754 -999 3.167811 33.749451 2.551485
2009-02-03 09:10:57 51°28.639 2°54.757 -999 3.169364 33.767778 2.551485
2009-02-03 09:11:02 51°28.657 2°54.762 -999 3.169364 33.767778 2.551485
2009-02-03 09:11:07 51°28.674 2°54.766 -999 3.169468 33.770006 2.551485
2009-02-03 09:11:12 51°28.692 2°54.771 -999 3.169468 33.770006 2.551485
2009-02-03 09:11:17 51°28.71 2°54.774 -999 3.169468 33.770006 2.586309
2009-02-03 09:11:22 51°28.727 2°54.779 -999 3.169675 33.771444 2.551485
2009-02-03 09:11:27 51°28.745 2°54.783 -999 3.169882 33.773887 2.516661
2009-02-03 09:11:32 51°28.763 2°54.787 -999 3.169985 33.773097 2.516661
2009-02-03 09:11:37 51°28.781 2°54.791 -999 3.170192 33.774535 2.516661
2009-02-03 09:11:42 51°28.798 2°54.795 -999 3.170192 33.774535 2.516661
2009-02-03 09:11:47 51°28.816 2°54.798 -999 3.17071 33.779637 2.516661
2009-02-03 09:11:52 51°28.834 2°54.801 -999 3.170813 33.778847 2.516661
2009-02-03 09:11:57 51°28.851 2°54.805 -999 3.171228 33.782728 2.481837
2009-02-03 09:12:02 51°28.869 2°54.808 -999 3.171642 33.786608 2.516661
2009-02-03 09:12:07 51°28.886 2°54.811 -999 3.171745 33.785818 2.481837
2009-02-03 09:12:12 51°28.903 2°54.816 -999 3.171745 33.785818 2.481837
2009-02-03 09:12:17 51°28.921 2°54.819 -999 3.172263 33.789914 2.481837
2009-02-03 09:12:22 51°28.938 2°54.824 -999 3.17247 33.790344 2.447013
2009-02-03 09:12:26 51°28.952 2°54.827 -999 3.173091 33.797674 2.551485
2009-02-03 09:12:32 51°28.973 2°54.833 -999 3.173609 33.800762 2.516661
2009-02-03 09:12:37 51°28.99 2°54.838 -999 3.173816 33.79918 2.481837
2009-02-03 09:12:42 51°29.007 2°54.842 -999 3.173816 33.79918 2.481837
2009-02-03 09:12:47 51°29.024 2°54.847 -999 3.174437 33.80349 2.551485
2009-02-03 09:12:52 51°29.042 2°54.852 -999 3.175058 33.806792 2.551485